M I D A S
Marine Information and Data Acquisition System
Tripno 654 of the Zeeleeuw from 2004-02-24 07:13:44 to 2004-02-24 14:12:10
Back to CruiseResearch ActivitiesStationsMapUnderway DataData graphs

EquipmentUnitsComment
TimeDGPSUTC
LatitudeDGPSDM.mWGS84
LongitudeDGPSDM.mWGS84
TemperatureSBE03/SBE38deg celciusITS90
ConductivitySBE21S/mITS90
SalinitySBE21 Practical Salinity Units
ChlorophylAChelsea fluorimeterg/lCalibrated in Aceton
Missing or incorrect values are displayed as -999
Sea surface data collected by the RV Zeeleeuw from 2004-02-24 07:13:44 to 2004-02-24 14:12:10
                                                                                    Next 1000 lines
Time Latitude Longitude Temperature Conductivity Salinity ChlorophylA
2004-02-24 07:13:53 51°13.592 2°56.111 12.182101 4.127214 31.546747 -0.882377
2004-02-24 07:13:58 51°13.592 2°56.111 12.208819 4.127214 31.546747 -0.882377
2004-02-24 07:14:02 51°13.592 2°56.111 12.208819 4.127214 31.546747 -0.882377
2004-02-24 07:14:08 51°13.592 2°56.109 12.203331 4.127214 31.546747 -0.882377
2004-02-24 07:14:13 51°13.592 2°56.109 12.20129 4.127214 31.547316 -0.882377
2004-02-24 07:14:18 51°13.592 2°56.109 12.202061 4.127214 31.547316 -0.882377
2004-02-24 07:14:23 51°13.592 2°56.109 12.207594 4.127214 31.546747 -0.882377
2004-02-24 07:14:28 51°13.592 2°56.109 12.211858 4.127214 31.546747 -0.916087
2004-02-24 07:14:33 51°13.592 2°56.109 12.211858 4.127214 31.546747 -0.916087
2004-02-24 07:14:38 51°13.592 2°56.109 12.213581 4.127109 31.545848 -0.882377
2004-02-24 07:14:42 51°13.592 2°56.109 12.21086 4.12732 31.548215 -0.882377
2004-02-24 07:14:48 51°13.593 2°56.109 12.211994 4.127214 31.546747 -0.882377
2004-02-24 07:14:53 51°13.593 2°56.11 12.214261 4.127214 31.546747 -0.882377
2004-02-24 07:14:58 51°13.593 2°56.11 12.213037 4.12732 31.547646 -0.848668
2004-02-24 07:15:02 51°13.593 2°56.11 12.213037 4.12732 31.547646 -0.848668
2004-02-24 07:15:08 51°13.593 2°56.11 12.217934 4.12732 31.547646 -0.882377
2004-02-24 07:15:12 51°13.593 2°56.11 12.217662 4.127214 31.546747 -0.882377
2004-02-24 07:15:18 51°13.593 2°56.11 12.218297 4.12732 31.547646 -0.882377
2004-02-24 07:15:23 51°13.593 2°56.11 12.220066 4.127214 31.546177 -0.848668
2004-02-24 07:15:28 51°13.593 2°56.11 12.221562 4.12732 31.547646 -0.882377
2004-02-24 07:15:32 51°13.593 2°56.11 12.221562 4.12732 31.547646 -0.882377
2004-02-24 07:15:38 51°13.593 2°56.11 12.220474 4.127425 31.548545 -0.882377
2004-02-24 07:15:42 51°13.593 2°56.11 12.223194 4.12732 31.547646 -0.882377
2004-02-24 07:15:48 51°13.593 2°56.11 12.222786 4.12732 31.547646 -0.882377
2004-02-24 07:15:53 51°13.593 2°56.11 12.223194 4.12732 31.547646 -0.882377
2004-02-24 07:15:58 51°13.593 2°56.11 12.224192 4.127425 31.548545 -0.916087
2004-02-24 07:16:03 51°13.593 2°56.11 12.224192 4.127425 31.548545 -0.916087
2004-02-24 07:16:08 51°13.593 2°56.11 12.225189 4.12732 31.547646 -0.848668
2004-02-24 07:16:12 51°13.593 2°56.11 12.244366 4.12732 31.547646 -0.882377
2004-02-24 07:16:18 51°13.593 2°56.11 12.22664 4.12732 31.547076 -0.882377
2004-02-24 07:16:22 51°13.593 2°56.11 12.221517 4.12732 31.547646 -0.882377
2004-02-24 07:16:28 51°13.593 2°56.11 12.245454 4.127425 31.547975 -0.882377
2004-02-24 07:16:33 51°13.593 2°56.11 12.245454 4.127425 31.547975 -0.882377
2004-02-24 07:16:38 51°13.593 2°56.11 12.242916 4.12732 31.547076 -0.882377
2004-02-24 07:16:42 51°13.593 2°56.11 12.227774 4.12732 31.547076 -0.848668
2004-02-24 07:16:48 51°13.593 2°56.11 12.220292 4.127425 31.548545 -0.848668
2004-02-24 07:16:53 51°13.592 2°56.11 12.238201 4.127425 31.548545 -0.848668
2004-02-24 07:16:58 51°13.592 2°56.11 12.204828 4.12732 31.547646 -0.882377
2004-02-24 07:17:03 51°13.592 2°56.109 12.204828 4.12732 31.547646 -0.882377
2004-02-24 07:17:08 51°13.593 2°56.107 12.171528 4.127425 31.548545 -0.882377
2004-02-24 07:17:13 51°13.593 2°56.105 12.194622 4.12732 31.547646 -0.882377
2004-02-24 07:17:18 51°13.594 2°56.101 12.162316 4.12732 31.547076 -0.882377
2004-02-24 07:17:23 51°13.595 2°56.097 12.19063 4.12732 31.547076 -0.882377
2004-02-24 07:17:28 51°13.596 2°56.092 12.192172 4.127425 31.548545 -0.882377
2004-02-24 07:17:33 51°13.597 2°56.086 12.192172 4.127425 31.548545 -0.882377
2004-02-24 07:17:38 51°13.599 2°56.08 12.176928 4.127425 31.548545 -0.848668
2004-02-24 07:17:44 51°13.602 2°56.072 12.215032 4.127425 31.547975 -0.882377
2004-02-24 07:17:48 51°13.604 2°56.067 12.217299 4.12732 31.547076 -0.916087
2004-02-24 07:17:54 51°13.607 2°56.058 12.219839 4.12732 31.547076 -0.848668
2004-02-24 07:17:58 51°13.609 2°56.052 12.217934 4.127425 31.548545 -0.882377
2004-02-24 07:18:04 51°13.612 2°56.042 12.217934 4.127425 31.548545 -0.882377
2004-02-24 07:18:08 51°13.614 2°56.034 12.173752 4.127425 31.547975 -0.848668
2004-02-24 07:18:14 51°13.618 2°56.023 12.236751 4.127425 31.547975 -0.882377
2004-02-24 07:18:18 51°13.62 2°56.016 12.213399 4.127425 31.547975 -0.848668
2004-02-24 07:18:24 51°13.624 2°56.004 12.227139 4.12732 31.547076 -0.882377
2004-02-24 07:18:29 51°13.627 2°55.994 12.218388 4.12732 31.547076 -0.882377
2004-02-24 07:18:34 51°13.63 2°55.984 12.218388 4.12732 31.547076 -0.882377
2004-02-24 07:18:38 51°13.633 2°55.976 12.229451 4.127425 31.548545 -0.882377
2004-02-24 07:18:44 51°13.637 2°55.963 12.225099 4.127425 31.547975 -0.848668
2004-02-24 07:18:48 51°13.64 2°55.955 12.271558 4.127425 31.547975 -0.882377
2004-02-24 07:18:53 51°13.643 2°55.944 12.242644 4.127425 31.547975 -0.882377
2004-02-24 07:18:58 51°13.647 2°55.934 12.253069 4.127425 31.547405 -0.882377
2004-02-24 07:19:04 51°13.651 2°55.921 12.253069 4.127425 31.547405 -0.882377
2004-02-24 07:19:09 51°13.654 2°55.911 12.249533 4.12732 31.547076 -0.882377
2004-02-24 07:19:14 51°13.658 2°55.9 12.233668 4.127425 31.547975 -0.882377
2004-02-24 07:19:18 51°13.66 2°55.892 12.247766 4.127425 31.547405 -0.882377
2004-02-24 07:19:24 51°13.664 2°55.879 12.239788 4.127425 31.547975 -0.882377
2004-02-24 07:19:29 51°13.668 2°55.868 12.239743 4.127531 31.548874 -0.882377
2004-02-24 07:19:34 51°13.67 2°55.857 12.239743 4.127531 31.548874 -0.882377
2004-02-24 07:19:39 51°13.673 2°55.845 12.243641 4.127425 31.547975 -0.882377
2004-02-24 07:19:44 51°13.676 2°55.834 12.24627 4.127425 31.547975 -0.882377
2004-02-24 07:19:49 51°13.678 2°55.823 12.244502 4.127425 31.547975 -0.882377
2004-02-24 07:19:53 51°13.68 2°55.814 12.243958 4.127531 31.547734 -0.848668
2004-02-24 07:19:58 51°13.682 2°55.802 12.244865 4.127531 31.547734 -0.848668
2004-02-24 07:20:04 51°13.685 2°55.789 12.244865 4.127531 31.547734 -0.848668
2004-02-24 07:20:09 51°13.686 2°55.779 12.257556 4.127425 31.546835 -0.848668
2004-02-24 07:20:13 51°13.687 2°55.773 12.248219 4.127531 31.547164 -0.848668
2004-02-24 07:20:18 51°13.688 2°55.767 12.268794 4.127531 31.547164 -0.848668
2004-02-24 07:20:22 51°13.688 2°55.764 12.362478 4.127531 31.547164 -0.848668
2004-02-24 07:20:28 51°13.689 2°55.763 12.373835 4.127425 31.546266 -0.848668
2004-02-24 07:20:32 51°13.69 2°55.764 12.373835 4.127425 31.546266 -0.848668
2004-02-24 07:20:38 51°13.691 2°55.765 12.326044 4.127531 31.547734 -0.882377
2004-02-24 07:20:42 51°13.693 2°55.768 12.3432 4.127425 31.547405 -0.882377
2004-02-24 07:20:48 51°13.696 2°55.771 12.395411 4.127531 31.548874 -0.848668
2004-02-24 07:20:53 51°13.698 2°55.774 12.354017 4.127531 31.550013 -0.848668
2004-02-24 07:20:58 51°13.702 2°55.776 12.422089 4.127636 31.551482 -0.882377
2004-02-24 07:21:02 51°13.705 2°55.778 12.422089 4.127636 31.551482 -0.882377
2004-02-24 07:21:08 51°13.709 2°55.779 12.378766 4.127531 31.551153 -0.848668
2004-02-24 07:21:12 51°13.712 2°55.779 12.179197 4.127531 31.552293 -0.882377
2004-02-24 07:21:18 51°13.714 2°55.779 12.158458 4.127636 31.551482 -0.882377
2004-02-24 07:21:22 51°13.715 2°55.779 12.23199 4.127636 31.550912 -0.882377
2004-02-24 07:21:28 51°13.715 2°55.779 12.191446 4.127636 31.549773 -0.848668
2004-02-24 07:21:33 51°13.714 2°55.778 12.191446 4.127636 31.549773 -0.848668
2004-02-24 07:21:38 51°13.713 2°55.777 12.131765 4.127531 31.548304 -0.882377
2004-02-24 07:21:42 51°13.712 2°55.776 12.271558 4.127636 31.548063 -0.882377
2004-02-24 07:21:48 51°13.709 2°55.775 12.209182 4.127636 31.548063 -0.882377
2004-02-24 07:21:54 51°13.705 2°55.774 12.226414 4.127636 31.548063 -0.848668
2004-02-24 07:21:58 51°13.703 2°55.773 12.260456 4.127636 31.547494 -0.848668
2004-02-24 07:22:04 51°13.701 2°55.772 12.260456 4.127636 31.547494 -0.848668
2004-02-24 07:22:08 51°13.7 2°55.771 12.276859 4.127636 31.548063 -0.882377
2004-02-24 07:22:14 51°13.701 2°55.77 12.296881 4.127741 31.548392 -0.882377
2004-02-24 07:22:18 51°13.703 2°55.769 12.439943 4.127636 31.547494 -0.882377
2004-02-24 07:22:24 51°13.707 2°55.766 12.475141 4.127636 31.547494 -0.882377
2004-02-24 07:22:29 51°13.711 2°55.763 12.305713 4.127741 31.548392 -0.882377
2004-02-24 07:22:34 51°13.714 2°55.76 12.305713 4.127741 31.548392 -0.882377
2004-02-24 07:22:38 51°13.718 2°55.756 12.339217 4.127636 31.548063 -0.848668
2004-02-24 07:22:43 51°13.722 2°55.752 12.300641 4.127741 31.548962 -0.848668
2004-02-24 07:22:48 51°13.727 2°55.746 12.361121 4.127741 31.549532 -0.882377
2004-02-24 07:22:53 51°13.732 2°55.74 12.293258 4.127741 31.548962 -0.882377
2004-02-24 07:22:58 51°13.738 2°55.733 12.28823 4.127636 31.548063 -0.882377
2004-02-24 07:23:03 51°13.744 2°55.726 12.28823 4.127636 31.548063 -0.882377
2004-02-24 07:23:08 51°13.75 2°55.719 12.261408 4.127636 31.548063 -0.916087
2004-02-24 07:23:13 51°13.757 2°55.711 12.257284 4.127741 31.548392 -0.882377
2004-02-24 07:23:18 51°13.764 2°55.703 12.228862 4.127636 31.547494 -0.848668
2004-02-24 07:23:22 51°13.77 2°55.697 12.233214 4.127741 31.548392 -0.848668
2004-02-24 07:23:28 51°13.779 2°55.687 12.223512 4.127741 31.547823 -0.916087
2004-02-24 07:23:32 51°13.785 2°55.68 12.223512 4.127741 31.547823 -0.916087
2004-02-24 07:23:38 51°13.794 2°55.67 12.264172 4.127741 31.548392 -0.882377
2004-02-24 07:23:42 51°13.801 2°55.663 12.252797 4.127741 31.548962 -0.882377
2004-02-24 07:23:48 51°13.811 2°55.653 12.234348 4.127741 31.548962 -0.882377
2004-02-24 07:23:53 51°13.819 2°55.646 12.217027 4.127741 31.549532 -0.848668
2004-02-24 07:23:58 51°13.828 2°55.638 12.19816 4.127741 31.549532 -0.882377
2004-02-24 07:24:02 51°13.835 2°55.632 12.19816 4.127741 31.549532 -0.882377
2004-02-24 07:24:08 51°13.847 2°55.622 12.206642 4.127741 31.548962 -0.916087
2004-02-24 07:24:13 51°13.857 2°55.614 12.337678 4.127741 31.549532 -0.882377
2004-02-24 07:24:18 51°13.866 2°55.605 12.256287 4.127741 31.550102 -0.848668
2004-02-24 07:24:22 51°13.875 2°55.598 12.288592 4.127847 31.550431 -0.882377
2004-02-24 07:24:28 51°13.887 2°55.588 12.235436 4.127847 31.550431 -0.882377
2004-02-24 07:24:33 51°13.898 2°55.579 12.235436 4.127847 31.550431 -0.882377
2004-02-24 07:24:38 51°13.908 2°55.57 12.303449 4.127741 31.548962 -0.882377
2004-02-24 07:24:42 51°13.917 2°55.563 12.285557 4.127847 31.549861 -0.882377
2004-02-24 07:24:48 51°13.93 2°55.551 12.217572 4.127741 31.549532 -0.848668
2004-02-24 07:24:53 51°13.942 2°55.542 12.230403 4.127847 31.549861 -0.848668
2004-02-24 07:24:58 51°13.953 2°55.533 12.202605 4.127847 31.549861 -0.882377
2004-02-24 07:25:03 51°13.964 2°55.524 12.202605 4.127847 31.549861 -0.882377
2004-02-24 07:25:08 51°13.976 2°55.514 12.244729 4.127847 31.550431 -0.882377
2004-02-24 07:25:13 51°13.988 2°55.505 12.241238 4.127741 31.549532 -0.882377
2004-02-24 07:25:18 51°13.999 2°55.496 12.221879 4.127847 31.550431 -0.848668
2004-02-24 07:25:22 51°14.008 2°55.489 12.220156 4.127847 31.550431 -0.882377
2004-02-24 07:25:28 51°14.021 2°55.479 12.247267 4.127741 31.548962 -0.882377
2004-02-24 07:25:33 51°14.032 2°55.471 12.247267 4.127741 31.548962 -0.882377
2004-02-24 07:25:38 51°14.042 2°55.464 12.209545 4.127847 31.549291 -0.848668
2004-02-24 07:25:42 51°14.051 2°55.458 12.250077 4.127847 31.549291 -0.848668
2004-02-24 07:25:48 51°14.063 2°55.449 12.274911 4.127741 31.548962 -0.882377
2004-02-24 07:25:53 51°14.074 2°55.442 12.244276 4.127847 31.549861 -0.882377
2004-02-24 07:25:58 51°14.085 2°55.435 12.252842 4.127952 31.55019 -0.848668
2004-02-24 07:26:04 51°14.098 2°55.425 12.252842 4.127952 31.55019 -0.848668
2004-02-24 07:26:08 51°14.107 2°55.419 12.28447 4.127847 31.548722 -0.882377
2004-02-24 07:26:13 51°14.119 2°55.412 12.24763 4.127847 31.549291 -0.848668
2004-02-24 07:26:18 51°14.131 2°55.404 12.267163 4.127847 31.548722 -0.882377
2004-02-24 07:26:22 51°14.141 2°55.397 12.319252 4.127952 31.55019 -0.848668
2004-02-24 07:26:28 51°14.156 2°55.386 12.33641 4.127741 31.548962 -0.882377
2004-02-24 07:26:33 51°14.168 2°55.376 12.33641 4.127741 31.548962 -0.882377
2004-02-24 07:26:38 51°14.18 2°55.366 12.340213 4.127847 31.549291 -0.882377
2004-02-24 07:26:43 51°14.192 2°55.354 12.369537 4.127741 31.548392 -0.848668
2004-02-24 07:26:48 51°14.203 2°55.341 12.320339 4.127847 31.549291 -0.882377
2004-02-24 07:26:53 51°14.214 2°55.328 12.346821 4.127952 31.55076 -0.882377
2004-02-24 07:26:58 51°14.226 2°55.313 12.267344 4.127952 31.55076 -0.848668
2004-02-24 07:27:03 51°14.236 2°55.298 12.267344 4.127952 31.55076 -0.848668
2004-02-24 07:27:08 51°14.247 2°55.282 12.350441 4.127847 31.549861 -0.848668
2004-02-24 07:27:13 51°14.258 2°55.266 12.261498 4.127952 31.55076 -0.916087
2004-02-24 07:27:18 51°14.268 2°55.248 12.419919 4.128058 31.551089 -0.848668
2004-02-24 07:27:22 51°14.276 2°55.234 12.289272 4.127847 31.549291 -0.848668
2004-02-24 07:27:28 51°14.288 2°55.211 12.253159 4.127952 31.54962 -0.882377
2004-02-24 07:27:32 51°14.296 2°55.196 12.253159 4.127952 31.54962 -0.882377
2004-02-24 07:27:38 51°14.309 2°55.173 12.214397 4.127847 31.548722 -0.882377
2004-02-24 07:27:43 51°14.319 2°55.153 12.204102 4.128058 31.54938 -0.882377
2004-02-24 07:27:48 51°14.33 2°55.134 12.234121 4.127952 31.548481 -0.848668
2004-02-24 07:27:53 51°14.34 2°55.113 12.231492 4.128058 31.551089 -0.882377
2004-02-24 07:27:58 51°14.351 2°55.093 12.241828 4.128163 31.551418 -0.882377
2004-02-24 07:28:02 51°14.359 2°55.077 12.241828 4.128163 31.551418 -0.882377
2004-02-24 07:28:08 51°14.372 2°55.053 12.160046 4.128058 31.550519 -0.848668
2004-02-24 07:28:12 51°14.381 2°55.037 12.331884 4.127636 31.547494 -0.882377
2004-02-24 07:28:18 51°14.394 2°55.013 12.213762 4.128058 31.549949 -0.848668
2004-02-24 07:28:22 51°14.402 2°54.996 12.210905 4.127952 31.54962 -0.882377
2004-02-24 07:28:28 51°14.414 2°54.969 12.248854 4.127952 31.55133 -0.882377
2004-02-24 07:28:33 51°14.423 2°54.946 12.248854 4.127952 31.55133 -0.882377
2004-02-24 07:28:38 51°14.432 2°54.922 12.15932 4.128163 31.551988 -0.882377
2004-02-24 07:28:43 51°14.44 2°54.898 12.303449 4.127531 31.547164 -0.882377
2004-02-24 07:28:48 51°14.448 2°54.875 12.074574 4.128058 31.551089 -0.848668
2004-02-24 07:28:53 51°14.456 2°54.854 12.028341 4.128269 31.552317 -0.882377
2004-02-24 07:28:58 51°14.464 2°54.833 12.117188 4.127952 31.54962 -0.916087
2004-02-24 07:29:03 51°14.472 2°54.813 12.117188 4.127952 31.54962 -0.916087
2004-02-24 07:29:08 51°14.48 2°54.794 12.129449 4.127847 31.548722 -0.882377
2004-02-24 07:29:13 51°14.488 2°54.777 12.16404 4.127741 31.547823 -0.848668
2004-02-24 07:29:18 51°14.496 2°54.761 12.048393 4.128269 31.552317 -0.882377
2004-02-24 07:29:22 51°14.503 2°54.748 12.087252 4.128163 31.552558 -0.848668
2004-02-24 07:29:28 51°14.512 2°54.73 12.056212 4.128269 31.553456 -0.882377
2004-02-24 07:29:33 51°14.521 2°54.716 12.056212 4.128269 31.553456 -0.882377
2004-02-24 07:29:38 51°14.529 2°54.703 12.14593 4.127952 31.55076 -0.882377
2004-02-24 07:29:42 51°14.535 2°54.692 12.146111 4.127952 31.55076 -0.882377
2004-02-24 07:29:48 51°14.544 2°54.676 12.131583 4.128163 31.553127 -0.882377
2004-02-24 07:29:53 51°14.552 2°54.663 12.072347 4.128058 31.551089 -0.848668
2004-02-24 07:29:58 51°14.559 2°54.651 12.142207 4.127847 31.549291 -0.882377
2004-02-24 07:30:02 51°14.565 2°54.641 12.142207 4.127847 31.549291 -0.882377
2004-02-24 07:30:08 51°14.574 2°54.626 12.124636 4.127952 31.55019 -0.882377
2004-02-24 07:30:13 51°14.581 2°54.613 12.081981 4.128163 31.552558 -0.848668
2004-02-24 07:30:18 51°14.588 2°54.6 12.165946 4.127741 31.548392 -0.882377
2004-02-24 07:30:22 51°14.593 2°54.59 12.04912 4.128374 31.553216 -0.848668
2004-02-24 07:30:28 51°14.602 2°54.576 12.107468 4.128058 31.550519 -0.882377
2004-02-24 07:30:33 51°14.608 2°54.563 12.107468 4.128058 31.550519 -0.882377
2004-02-24 07:30:38 51°14.615 2°54.551 12.075801 4.128163 31.551418 -0.882377
2004-02-24 07:30:43 51°14.622 2°54.538 12.095975 4.128058 31.550519 -0.882377
2004-02-24 07:30:48 51°14.628 2°54.525 12.11737 4.128058 31.550519 -0.882377
2004-02-24 07:30:53 51°14.635 2°54.513 12.107877 4.128058 31.551089 -0.848668
2004-02-24 07:30:58 51°14.641 2°54.5 12.078073 4.128269 31.551747 -0.882377
2004-02-24 07:31:02 51°14.646 2°54.49 12.078073 4.128269 31.551747 -0.882377
2004-02-24 07:31:08 51°14.654 2°54.474 12.090887 4.128163 31.551418 -0.882377
2004-02-24 07:31:12 51°14.659 2°54.464 12.081481 4.128163 31.551418 -0.882377
2004-02-24 07:31:18 51°14.666 2°54.449 12.131583 4.127847 31.548722 -0.882377
2004-02-24 07:31:22 51°14.671 2°54.438 12.063803 4.128163 31.550848 -0.848668
2004-02-24 07:31:28 51°14.678 2°54.423 12.066212 4.128163 31.550848 -0.882377
2004-02-24 07:31:33 51°14.684 2°54.41 12.066212 4.128163 31.550848 -0.882377
2004-02-24 07:31:38 51°14.69 2°54.398 12.081709 4.128269 31.551177 -0.848668
2004-02-24 07:31:43 51°14.696 2°54.385 12.112101 4.127847 31.548152 -0.848668
2004-02-24 07:31:48 51°14.702 2°54.373 12.101245 4.128163 31.550848 -0.882377
2004-02-24 07:31:53 51°14.709 2°54.361 12.079891 4.128058 31.54938 -0.882377
2004-02-24 07:31:58 51°14.715 2°54.349 12.028841 4.128374 31.552646 -0.882377
2004-02-24 07:32:03 51°14.722 2°54.338 12.028841 4.128374 31.552646 -0.882377
2004-02-24 07:32:08 51°14.729 2°54.327 12.036799 4.128374 31.552076 -0.848668
2004-02-24 07:32:13 51°14.736 2°54.315 12.092205 4.128058 31.549949 -0.882377
2004-02-24 07:32:18 51°14.743 2°54.305 12.129812 4.127741 31.547253 -0.882377
2004-02-24 07:32:22 51°14.748 2°54.296 12.067984 4.128374 31.553216 -0.848668
2004-02-24 07:32:28 51°14.757 2°54.284 12.048211 4.128269 31.551747 -0.848668
2004-02-24 07:32:33 51°14.764 2°54.273 12.048211 4.128269 31.551747 -0.848668
2004-02-24 07:32:38 51°14.772 2°54.264 12.061621 4.128163 31.550848 -0.882377
2004-02-24 07:32:43 51°14.779 2°54.254 12.143388 4.127531 31.546025 -0.882377
2004-02-24 07:32:48 51°14.787 2°54.244 12.042982 4.128269 31.551747 -0.882377
2004-02-24 07:32:53 51°14.794 2°54.234 12.110012 4.127741 31.547253 -0.882377
2004-02-24 07:32:58 51°14.802 2°54.225 12.06103 4.128163 31.550848 -0.916087
2004-02-24 07:33:02 51°14.808 2°54.217 12.06103 4.128163 31.550848 -0.916087
2004-02-24 07:33:08 51°14.817 2°54.206 12.072438 4.128058 31.549949 -0.848668
2004-02-24 07:33:12 51°14.823 2°54.199 12.077937 4.128163 31.550279 -0.882377
2004-02-24 07:33:18 51°14.832 2°54.188 12.124726 4.127847 31.548152 -0.848668
2004-02-24 07:33:22 51°14.838 2°54.18 12.052666 4.128374 31.552646 -0.848668
2004-02-24 07:33:28 51°14.849 2°54.167 12.099882 4.128058 31.549949 -0.848668
2004-02-24 07:33:32 51°14.856 2°54.158 12.099882 4.128058 31.549949 -0.848668
2004-02-24 07:33:38 51°14.868 2°54.143 12.077392 4.128058 31.549949 -0.848668
2004-02-24 07:33:42 51°14.877 2°54.132 12.050711 4.128269 31.551177 -0.882377
2004-02-24 07:33:48 51°14.891 2°54.116 12.068393 4.128163 31.549709 -0.882377
2004-02-24 07:33:53 51°14.903 2°54.101 12.013786 4.12869 31.554203 -0.848668
2004-02-24 07:33:58 51°14.916 2°54.086 12.088433 4.128058 31.54881 -0.882377
2004-02-24 07:34:02 51°14.926 2°54.073 12.088433 4.128058 31.54881 -0.882377
2004-02-24 07:34:08 51°14.942 2°54.053 12.062939 4.128163 31.550279 -0.882377
2004-02-24 07:34:13 51°14.956 2°54.036 12.080073 4.128163 31.549139 -0.882377
2004-02-24 07:34:18 51°14.97 2°54.019 12.072575 4.128374 31.551506 -0.882377
2004-02-24 07:34:22 51°14.981 2°54.005 12.054166 4.127952 31.548481 -0.882377
2004-02-24 07:34:28 51°14.998 2°53.983 12.061576 4.128374 31.552076 -0.882377
2004-02-24 07:34:33 51°15.012 2°53.965 12.061576 4.128374 31.552076 -0.882377
2004-02-24 07:34:38 51°15.026 2°53.946 12.025385 4.128479 31.552975 -0.848668
2004-02-24 07:34:42 51°15.037 2°53.931 12.002459 4.128479 31.552975 -0.848668
2004-02-24 07:34:48 51°15.054 2°53.908 12.087843 4.127952 31.548481 -0.882377
2004-02-24 07:34:53 51°15.068 2°53.889 12.066984 4.128163 31.549709 -0.882377
2004-02-24 07:34:58 51°15.083 2°53.87 12.030751 4.128585 31.553304 -0.848668
2004-02-24 07:35:02 51°15.095 2°53.855 12.030751 4.128585 31.553304 -0.848668
2004-02-24 07:35:08 51°15.112 2°53.832 12.058439 4.128585 31.552734 -0.882377
2004-02-24 07:35:13 51°15.126 2°53.813 12.037026 4.128269 31.550608 -0.848668
2004-02-24 07:35:18 51°15.141 2°53.793 12.108059 4.127847 31.547582 -0.916087
2004-02-24 07:35:22 51°15.153 2°53.779 12.038663 4.128796 31.555102 -0.848668
2004-02-24 07:35:28 51°15.171 2°53.756 12.022565 4.128269 31.551177 -0.848668
2004-02-24 07:35:33 51°15.186 2°53.739 12.022565 4.128269 31.551177 -0.848668
2004-02-24 07:35:38 51°15.202 2°53.723 12.063939 4.128374 31.551506 -0.882377
2004-02-24 07:35:42 51°15.215 2°53.711 12.072256 4.128058 31.54824 -0.882377
2004-02-24 07:35:48 51°15.235 2°53.694 12.074438 4.128374 31.550937 -0.848668
2004-02-24 07:35:53 51°15.252 2°53.681 12.014378 4.128374 31.550367 -0.848668
2004-02-24 07:35:58 51°15.269 2°53.668 12.061894 4.128269 31.550038 -0.882377
2004-02-24 07:36:02 51°15.283 2°53.658 12.061894 4.128269 31.550038 -0.882377
2004-02-24 07:36:08 51°15.303 2°53.642 12.036753 4.128374 31.551506 -0.882377
2004-02-24 07:36:13 51°15.321 2°53.628 12.088479 4.128269 31.551177 -0.848668
2004-02-24 07:36:18 51°15.338 2°53.615 12.082254 4.128163 31.550848 -0.882377
2004-02-24 07:36:22 51°15.351 2°53.604 12.084799 4.128479 31.552975 -0.848668
2004-02-24 07:36:28 51°15.371 2°53.587 12.088206 4.128269 31.551177 -0.848668
2004-02-24 07:36:33 51°15.388 2°53.573 12.088206 4.128269 31.551177 -0.848668
2004-02-24 07:36:38 51°15.405 2°53.559 12.04221 4.128374 31.552076 -0.848668
2004-02-24 07:36:42 51°15.419 2°53.548 12.055894 4.128479 31.552405 -0.882377
2004-02-24 07:36:48 51°15.44 2°53.531 12.092931 4.128269 31.550608 -0.848668
2004-02-24 07:36:53 51°15.457 2°53.517 12.034343 4.12869 31.554203 -0.848668
2004-02-24 07:36:58 51°15.474 2°53.503 12.068075 4.128374 31.551506 -0.882377
2004-02-24 07:37:03 51°15.491 2°53.489 12.068075 4.128374 31.551506 -0.882377
2004-02-24 07:37:08 51°15.508 2°53.475 12.089206 4.128269 31.550608 -0.882377
2004-02-24 07:37:13 51°15.525 2°53.46 12.048756 4.128585 31.553304 -0.882377
2004-02-24 07:37:18 51°15.542 2°53.446 12.065848 4.128163 31.549709 -0.848668
2004-02-24 07:37:22 51°15.556 2°53.435 12.088661 4.128479 31.552975 -0.882377
2004-02-24 07:37:28 51°15.577 2°53.418 12.039072 4.128585 31.553304 -0.848668
2004-02-24 07:37:33 51°15.594 2°53.405 12.039072 4.128585 31.553304 -0.848668
2004-02-24 07:37:38 51°15.611 2°53.39 12.058348 4.128374 31.551506 -0.882377
2004-02-24 07:37:44 51°15.632 2°53.372 12.087752 4.128269 31.550608 -0.848668
2004-02-24 07:37:48 51°15.645 2°53.361 12.046074 4.12869 31.554203 -0.882377
2004-02-24 07:37:52 51°15.659 2°53.349 12.089933 4.128269 31.550608 -0.848668
2004-02-24 07:37:58 51°15.68 2°53.331 12.047665 4.128796 31.555671 -0.882377
2004-02-24 07:38:02 51°15.693 2°53.32 12.047665 4.128796 31.555671 -0.882377
2004-02-24 07:38:08 51°15.714 2°53.303 12.055894 4.128479 31.551836 -0.882377
2004-02-24 07:38:13 51°15.731 2°53.289 12.083799 4.128163 31.550279 -0.882377
2004-02-24 07:38:18 51°15.747 2°53.274 12.052212 4.128374 31.551506 -0.848668
2004-02-24 07:38:22 51°15.761 2°53.262 12.078437 4.128479 31.552405 -0.848668
2004-02-24 07:38:28 51°15.781 2°53.244 12.053212 4.128585 31.553304 -0.848668
2004-02-24 07:38:33 51°15.798 2°53.23 12.053212 4.128585 31.553304 -0.848668
2004-02-24 07:38:38 51°15.815 2°53.215 12.090523 4.128163 31.550279 -0.882377
2004-02-24 07:38:43 51°15.832 2°53.202 12.047847 4.12869 31.554203 -0.882377
2004-02-24 07:38:48 51°15.85 2°53.189 12.047893 4.128585 31.553304 -0.848668
2004-02-24 07:38:53 51°15.867 2°53.177 12.054757 4.128796 31.554532 -0.882377
2004-02-24 07:38:58 51°15.885 2°53.164 12.049757 4.128479 31.552405 -0.882377
2004-02-24 07:39:02 51°15.899 2°53.155 12.049757 4.128479 31.552405 -0.882377
2004-02-24 07:39:08 51°15.919 2°53.141 12.090024 4.128058 31.54938 -0.848668
2004-02-24 07:39:13 51°15.937 2°53.13 12.047938 4.128796 31.554532 -0.882377
2004-02-24 07:39:18 51°15.955 2°53.119 12.066166 4.128374 31.552076 -0.882377
2004-02-24 07:39:22 51°15.969 2°53.111 12.070166 4.128479 31.552405 -0.882377
2004-02-24 07:39:28 51°15.99 2°53.099 12.074529 4.128479 31.551836 -0.848668
2004-02-24 07:39:33 51°16.009 2°53.089 12.074529 4.128479 31.551836 -0.848668
2004-02-24 07:39:38 51°16.027 2°53.08 12.05953 4.128796 31.553962 -0.882377
2004-02-24 07:39:42 51°16.041 2°53.073 12.074211 4.128479 31.551836 -0.882377
2004-02-24 07:39:48 51°16.063 2°53.061 12.071666 4.128269 31.550608 -0.848668
2004-02-24 07:39:52 51°16.077 2°53.054 12.069939 4.12869 31.553633 -0.882377
2004-02-24 07:39:58 51°16.099 2°53.043 12.059939 4.12869 31.554203 -0.882377
2004-02-24 07:40:02 51°16.113 2°53.035 12.059939 4.12869 31.554203 -0.882377
2004-02-24 07:40:08 51°16.135 2°53.023 12.084072 4.128269 31.551747 -0.848668
2004-02-24 07:40:12 51°16.149 2°53.015 12.06903 4.128479 31.553545 -0.882377
2004-02-24 07:40:18 51°16.171 2°53.003 12.07003 4.128585 31.553874 -0.882377
2004-02-24 07:40:22 51°16.185 2°52.995 12.089569 4.128479 31.552975 -0.848668
2004-02-24 07:40:28 51°16.207 2°52.984 12.075529 4.128374 31.551506 -0.848668
2004-02-24 07:40:32 51°16.221 2°52.976 12.075529 4.128374 31.551506 -0.848668
2004-02-24 07:40:38 51°16.243 2°52.965 12.090251 4.128269 31.551177 -0.882377
2004-02-24 07:40:42 51°16.257 2°52.957 12.061848 4.128796 31.555102 -0.882377
2004-02-24 07:40:48 51°16.279 2°52.945 12.081981 4.128269 31.551177 -0.882377
2004-02-24 07:40:53 51°16.296 2°52.936 12.073393 4.128585 31.553304 -0.848668
2004-02-24 07:40:58 51°16.314 2°52.926 12.085026 4.128374 31.551506 -0.882377
2004-02-24 07:41:02 51°16.329 2°52.918 12.085026 4.128374 31.551506 -0.882377
2004-02-24 07:41:08 51°16.35 2°52.905 12.078346 4.128585 31.553304 -0.848668
2004-02-24 07:41:12 51°16.365 2°52.897 12.069484 4.128585 31.552734 -0.882377
2004-02-24 07:41:18 51°16.386 2°52.885 12.074665 4.128796 31.555102 -0.882377
2004-02-24 07:41:22 51°16.4 2°52.878 12.09066 4.128058 31.54881 -0.882377
2004-02-24 07:41:28 51°16.422 2°52.865 12.078573 4.128479 31.551836 -0.848668
2004-02-24 07:41:32 51°16.436 2°52.857 12.078573 4.128479 31.551836 -0.848668
2004-02-24 07:41:38 51°16.457 2°52.845 12.077119 4.128585 31.553304 -0.848668
2004-02-24 07:41:43 51°16.475 2°52.835 12.063621 4.128796 31.553962 -0.848668
2004-02-24 07:41:48 51°16.493 2°52.825 12.092477 4.128269 31.550038 -0.882377
2004-02-24 07:41:52 51°16.508 2°52.817 12.073574 4.128479 31.552405 -0.848668
2004-02-24 07:41:58 51°16.529 2°52.805 12.083844 4.128479 31.552405 -0.882377
2004-02-24 07:42:02 51°16.543 2°52.797 12.083844 4.128479 31.552405 -0.882377
2004-02-24 07:42:08 51°16.564 2°52.785 12.087616 4.12869 31.554203 -0.916087
2004-02-24 07:42:13 51°16.582 2°52.775 12.084162 4.12869 31.554203 -0.848668
2004-02-24 07:42:18 51°16.6 2°52.765 12.077937 4.12869 31.553633 -0.848668
2004-02-24 07:42:22 51°16.614 2°52.757 12.087479 4.128163 31.550848 -0.848668
2004-02-24 07:42:28 51°16.635 2°52.744 12.083844 4.12869 31.554203 -0.848668
2004-02-24 07:42:32 51°16.65 2°52.736 12.083844 4.12869 31.554203 -0.848668
2004-02-24 07:42:38 51°16.671 2°52.724 12.092977 4.128163 31.549709 -0.848668
2004-02-24 07:42:42 51°16.685 2°52.715 12.076256 4.128796 31.554532 -0.848668
2004-02-24 07:42:48 51°16.707 2°52.703 12.095794 4.128479 31.551836 -0.916087
2004-02-24 07:42:53 51°16.724 2°52.692 12.092841 4.128374 31.551506 -0.882377
2004-02-24 07:42:58 51°16.742 2°52.682 12.083844 4.128585 31.553874 -0.916087
2004-02-24 07:43:02 51°16.756 2°52.674 12.083844 4.128585 31.553874 -0.916087
2004-02-24 07:43:08 51°16.777 2°52.663 12.091023 4.128163 31.550279 -0.882377
2004-02-24 07:43:13 51°16.794 2°52.653 12.090751 4.12869 31.553063 -0.882377
2004-02-24 07:43:18 51°16.812 2°52.643 12.098292 4.128269 31.551177 -0.882377
2004-02-24 07:43:23 51°16.83 2°52.633 12.087207 4.128585 31.552734 -0.848668
2004-02-24 07:43:28 51°16.848 2°52.623 12.093704 4.128901 31.556 -0.882377
2004-02-24 07:43:32 51°16.862 2°52.615 12.093704 4.128901 31.556 -0.882377
2004-02-24 07:43:38 51°16.883 2°52.603 12.098065 4.128269 31.550608 -0.882377
2004-02-24 07:43:42 51°16.897 2°52.596 12.086389 4.12869 31.553633 -0.882377
2004-02-24 07:43:48 51°16.918 2°52.584 12.096157 4.128585 31.553304 -0.882377
2004-02-24 07:43:53 51°16.936 2°52.574 12.100382 4.128374 31.551506 -0.882377
2004-02-24 07:43:58 51°16.954 2°52.565 12.094067 4.12869 31.554203 -0.882377
2004-02-24 07:44:03 51°16.972 2°52.555 12.094067 4.12869 31.554203 -0.882377
2004-02-24 07:44:08 51°16.99 2°52.546 12.093068 4.12869 31.553633 -0.882377
2004-02-24 07:44:12 51°17.004 2°52.538 12.102926 4.128269 31.550608 -0.882377
2004-02-24 07:44:18 51°17.026 2°52.527 12.098474 4.128479 31.551836 -0.882377
2004-02-24 07:44:23 51°17.043 2°52.517 12.099791 4.128901 31.554861 -0.882377
2004-02-24 07:44:28 51°17.061 2°52.508 12.099882 4.12869 31.553633 -0.882377
2004-02-24 07:44:32 51°17.075 2°52.5 12.099882 4.12869 31.553633 -0.882377
2004-02-24 07:44:38 51°17.097 2°52.488 12.097929 4.129112 31.557228 -0.848668
2004-02-24 07:44:44 51°17.118 2°52.477 12.105924 4.128269 31.550608 -0.882377
2004-02-24 07:44:48 51°17.132 2°52.469 12.105379 4.128796 31.554532 -0.848668
2004-02-24 07:44:52 51°17.147 2°52.461 12.103062 4.12869 31.554203 -0.882377
2004-02-24 07:44:58 51°17.168 2°52.45 12.103335 4.12869 31.553633 -0.848668
2004-02-24 07:45:03 51°17.186 2°52.44 12.103335 4.12869 31.553633 -0.848668
2004-02-24 07:45:08 51°17.204 2°52.43 12.106741 4.128585 31.552734 -0.882377
2004-02-24 07:45:13 51°17.222 2°52.42 12.106106 4.128479 31.552405 -0.882377
2004-02-24 07:45:18 51°17.241 2°52.41 12.106151 4.128796 31.553962 -0.848668
2004-02-24 07:45:22 51°17.255 2°52.402 12.109558 4.128479 31.551836 -0.882377
2004-02-24 07:45:28 51°17.277 2°52.389 12.110739 4.128479 31.552405 -0.882377
2004-02-24 07:45:33 51°17.294 2°52.379 12.110739 4.128479 31.552405 -0.882377
2004-02-24 07:45:38 51°17.313 2°52.368 12.115008 4.128269 31.551177 -0.882377
2004-02-24 07:45:44 51°17.334 2°52.356 12.11251 4.128796 31.554532 -0.916087
2004-02-24 07:45:48 51°17.349 2°52.348 12.116734 4.128058 31.54881 -0.882377
2004-02-24 07:45:53 51°17.367 2°52.337 12.114645 4.128585 31.552165 -0.882377
2004-02-24 07:45:58 51°17.384 2°52.325 12.118369 4.128269 31.550038 -0.882377
2004-02-24 07:46:03 51°17.401 2°52.311 12.118369 4.128269 31.550038 -0.882377
2004-02-24 07:46:08 51°17.417 2°52.296 12.117006 4.128796 31.555671 -0.882377
2004-02-24 07:46:13 51°17.433 2°52.279 12.116234 4.129007 31.558609 -0.882377
2004-02-24 07:46:18 51°17.449 2°52.261 12.118823 4.128585 31.553874 -0.848668
2004-02-24 07:46:22 51°17.461 2°52.247 12.11855 4.128796 31.555671 -0.882377
2004-02-24 07:46:28 51°17.48 2°52.226 12.119368 4.128585 31.553874 -0.848668
2004-02-24 07:46:32 51°17.492 2°52.211 12.119368 4.128585 31.553874 -0.848668
2004-02-24 07:46:38 51°17.511 2°52.189 12.119867 4.128796 31.554532 -0.916087
2004-02-24 07:46:43 51°17.526 2°52.171 12.121457 4.12869 31.553063 -0.882377
2004-02-24 07:46:48 51°17.541 2°52.152 12.121866 4.128796 31.553962 -0.882377
2004-02-24 07:46:53 51°17.556 2°52.131 12.122955 4.128479 31.552975 -0.882377
2004-02-24 07:46:58 51°17.569 2°52.109 12.123954 4.12869 31.555342 -0.882377
2004-02-24 07:47:02 51°17.579 2°52.091 12.123954 4.12869 31.555342 -0.882377
2004-02-24 07:47:08 51°17.593 2°52.062 12.124636 4.128585 31.554444 -0.848668
2004-02-24 07:47:13 51°17.605 2°52.038 12.125271 4.128269 31.552317 -0.848668
2004-02-24 07:47:18 51°17.616 2°52.013 12.125635 4.129007 31.558039 -0.882377
2004-02-24 07:47:23 51°17.628 2°51.988 12.126952 4.12869 31.554773 -0.882377
2004-02-24 07:47:28 51°17.639 2°51.963 12.127451 4.12869 31.553633 -0.848668
2004-02-24 07:47:32 51°17.648 2°51.943 12.127451 4.12869 31.553633 -0.848668
2004-02-24 07:47:38 51°17.661 2°51.913 12.128087 4.129217 31.556418 -0.882377
2004-02-24 07:47:42 51°17.67 2°51.893 12.129767 4.12869 31.552494 -0.882377
2004-02-24 07:47:48 51°17.684 2°51.864 12.130766 4.128479 31.551836 -0.882377
2004-02-24 07:47:53 51°17.696 2°51.839 12.131492 4.12869 31.552494 -0.882377
2004-02-24 07:47:58 51°17.708 2°51.815 12.132446 4.129007 31.55576 -0.882377
2004-02-24 07:48:03 51°17.719 2°51.791 12.132446 4.129007 31.55576 -0.882377
2004-02-24 07:48:08 51°17.731 2°51.766 12.132854 4.128796 31.554532 -0.848668
2004-02-24 07:48:13 51°17.742 2°51.741 12.133944 4.128374 31.551506 -0.882377
2004-02-24 07:48:18 51°17.754 2°51.717 12.134761 4.128269 31.550608 -0.882377
2004-02-24 07:48:22 51°17.763 2°51.698 12.136078 4.128796 31.555102 -0.848668
2004-02-24 07:48:28 51°17.777 2°51.668 12.137531 4.129007 31.556329 -0.848668
2004-02-24 07:48:33 51°17.789 2°51.644 12.137531 4.129007 31.556329 -0.848668
2004-02-24 07:48:38 51°17.8 2°51.619 12.13744 4.128479 31.551836 -0.882377
2004-02-24 07:48:43 51°17.812 2°51.594 12.139165 4.128585 31.552734 -0.882377
2004-02-24 07:48:48 51°17.823 2°51.57 12.139846 4.128269 31.550608 -0.848668
2004-02-24 07:48:53 51°17.835 2°51.545 12.141027 4.12869 31.554773 -0.882377
2004-02-24 07:48:58 51°17.846 2°51.52 12.142298 4.129007 31.556329 -0.882377
2004-02-24 07:49:02 51°17.856 2°51.5 12.142298 4.129007 31.556329 -0.882377
2004-02-24 07:49:08 51°17.87 2°51.471 12.142661 4.128585 31.553304 -0.848668
2004-02-24 07:49:13 51°17.881 2°51.446 12.144296 4.12869 31.554203 -0.882377
2004-02-24 07:49:18 51°17.893 2°51.421 12.144613 4.129007 31.556329 -0.882377
2004-02-24 07:49:22 51°17.903 2°51.401 12.145657 4.128585 31.553304 -0.916087
2004-02-24 07:49:28 51°17.917 2°51.372 12.146883 4.128901 31.556 -0.848668
2004-02-24 07:49:32 51°17.927 2°51.352 12.146883 4.128901 31.556 -0.848668
2004-02-24 07:49:38 51°17.941 2°51.322 12.147473 4.128374 31.551506 -0.848668
2004-02-24 07:49:42 51°17.95 2°51.302 12.148063 4.128269 31.551747 -0.848668
2004-02-24 07:49:48 51°17.965 2°51.272 12.149698 4.12869 31.555342 -0.882377
2004-02-24 07:49:53 51°17.977 2°51.247 12.151014 4.128479 31.554115 -0.848668
2004-02-24 07:49:58 51°17.989 2°51.223 12.15115 4.128479 31.553545 -0.882377
2004-02-24 07:50:03 51°18.001 2°51.198 12.15115 4.128479 31.553545 -0.882377
2004-02-24 07:50:08 51°18.013 2°51.173 12.152557 4.128585 31.554444 -0.882377
2004-02-24 07:50:13 51°18.025 2°51.147 12.153238 4.128796 31.555671 -0.882377
2004-02-24 07:50:18 51°18.036 2°51.123 12.153692 4.128163 31.550848 -0.882377
2004-02-24 07:50:24 51°18.051 2°51.093 12.155508 4.129007 31.556899 -0.848668
2004-02-24 07:50:28 51°18.06 2°51.072 12.156052 4.128374 31.551506 -0.882377
2004-02-24 07:50:33 51°18.072 2°51.048 12.156052 4.128374 31.551506 -0.882377
2004-02-24 07:50:38 51°18.084 2°51.022 12.157323 4.128585 31.553874 -0.882377
2004-02-24 07:50:43 51°18.096 2°50.998 12.157959 4.12869 31.554203 -0.882377
2004-02-24 07:50:48 51°18.108 2°50.973 12.15923 4.128374 31.552646 -0.848668
2004-02-24 07:50:53 51°18.12 2°50.949 12.160591 4.128796 31.556241 -0.882377
2004-02-24 07:50:58 51°18.132 2°50.924 12.161136 4.128585 31.555013 -0.848668
2004-02-24 07:51:02 51°18.142 2°50.904 12.161136 4.128585 31.555013 -0.848668
2004-02-24 07:51:08 51°18.156 2°50.875 12.16218 4.128374 31.553786 -0.882377
2004-02-24 07:51:13 51°18.168 2°50.85 12.163087 4.12869 31.555912 -0.848668
2004-02-24 07:51:18 51°18.18 2°50.825 12.163995 4.128269 31.552887 -0.882377
2004-02-24 07:51:22 51°18.189 2°50.806 12.164494 4.128585 31.555583 -0.882377
2004-02-24 07:51:28 51°18.203 2°50.776 12.16522 4.128585 31.555013 -0.848668
2004-02-24 07:51:33 51°18.215 2°50.751 12.16522 4.128585 31.555013 -0.848668
2004-02-24 07:51:38 51°18.227 2°50.727 12.165856 4.128796 31.556811 -0.848668
2004-02-24 07:51:43 51°18.239 2°50.702 12.166854 4.12869 31.555912 -0.882377
2004-02-24 07:51:48 51°18.251 2°50.678 12.16758 4.128585 31.555013 -0.916087
2004-02-24 07:51:53 51°18.263 2°50.653 12.168805 4.128479 31.555254 -0.882377
2004-02-24 07:51:58 51°18.275 2°50.629 12.169804 4.128479 31.555254 -0.882377
2004-02-24 07:52:02 51°18.284 2°50.609 12.169804 4.128479 31.555254 -0.882377
2004-02-24 07:52:08 51°18.299 2°50.58 12.171074 4.128479 31.555254 -0.848668
2004-02-24 07:52:13 51°18.311 2°50.555 12.171801 4.128585 31.556723 -0.916087
2004-02-24 07:52:18 51°18.322 2°50.531 12.17171 4.128901 31.55885 -0.848668
2004-02-24 07:52:22 51°18.332 2°50.511 12.173843 4.128796 31.557951 -0.848668
2004-02-24 07:52:28 51°18.346 2°50.482 12.174342 4.12869 31.558192 -0.882377
2004-02-24 07:52:32 51°18.356 2°50.462 12.174342 4.12869 31.558192 -0.882377
2004-02-24 07:52:38 51°18.37 2°50.433 12.176157 4.12869 31.557622 -0.848668
2004-02-24 07:52:42 51°18.38 2°50.414 12.176384 4.128374 31.555495 -0.848668
2004-02-24 07:52:48 51°18.395 2°50.385 12.177246 4.128163 31.554267 -0.882377
2004-02-24 07:52:52 51°18.404 2°50.366 12.177609 4.128163 31.554837 -0.882377
2004-02-24 07:52:58 51°18.419 2°50.337 12.178471 4.12848 31.558104 -0.882377
2004-02-24 07:53:03 51°18.431 2°50.313 12.178471 4.12848 31.558104 -0.882377
2004-02-24 07:53:08 51°18.443 2°50.289 12.178834 4.128269 31.556306 -0.882377
2004-02-24 07:53:13 51°18.455 2°50.265 12.180286 4.128374 31.557775 -0.882377
2004-02-24 07:53:18 51°18.467 2°50.241 12.181012 4.12869 31.560472 -0.882377
2004-02-24 07:53:24 51°18.481 2°50.212 12.182146 4.128163 31.555977 -0.848668
2004-02-24 07:53:28 51°18.491 2°50.193 12.182872 4.128269 31.557446 -0.848668
2004-02-24 07:53:33 51°18.503 2°50.169 12.182872 4.128269 31.557446 -0.848668
2004-02-24 07:53:38 51°18.515 2°50.145 12.183915 4.128585 31.559573 -0.882377
2004-02-24 07:53:42 51°18.524 2°50.126 12.18446 4.128269 31.557446 -0.882377
2004-02-24 07:53:48 51°18.539 2°50.097 12.185277 4.128585 31.560713 -0.882377
2004-02-24 07:53:53 51°18.55 2°50.073 12.186456 4.128585 31.560713 -0.882377
2004-02-24 07:53:58 51°18.562 2°50.048 12.1875 4.128374 31.559485 -0.882377
2004-02-24 07:54:02 51°18.571 2°50.028 12.1875 4.128374 31.559485 -0.882377
2004-02-24 07:54:08 51°18.585 2°49.999 12.188407 4.128163 31.558257 -0.882377
2004-02-24 07:54:13 51°18.596 2°49.974 12.189677 4.12848 31.561524 -0.882377
2004-02-24 07:54:18 51°18.608 2°49.949 12.190494 4.12848 31.560384 -0.848668
2004-02-24 07:54:23 51°18.619 2°49.924 12.191356 4.128058 31.557928 -0.882377
2004-02-24 07:54:28 51°18.63 2°49.898 12.191628 4.127847 31.5567 -0.882377
2004-02-24 07:54:33 51°18.641 2°49.873 12.191628 4.127847 31.5567 -0.882377
2004-02-24 07:54:38 51°18.652 2°49.848 12.191945 4.127636 31.555472 -0.882377
2004-02-24 07:54:43 51°18.663 2°49.823 12.193896 4.128058 31.559068 -0.882377
2004-02-24 07:54:48 51°18.674 2°49.798 12.194531 4.128163 31.559397 -0.848668
2004-02-24 07:54:53 51°18.685 2°49.773 12.193805 4.127636 31.555472 -0.848668
2004-02-24 07:54:58 51°18.696 2°49.748 12.195756 4.128058 31.559068 -0.882377
2004-02-24 07:55:03 51°18.707 2°49.723 12.195756 4.128058 31.559068 -0.882377
2004-02-24 07:55:08 51°18.718 2°49.698 12.19621 4.127425 31.554243 -0.882377
2004-02-24 07:55:13 51°18.729 2°49.673 12.198387 4.127531 31.555712 -0.882377
2004-02-24 07:55:18 51°18.74 2°49.647 12.198704 4.127531 31.556283 -0.848668
2004-02-24 07:55:22 51°18.749 2°49.627 12.200428 4.127531 31.556283 -0.882377
2004-02-24 07:55:28 51°18.762 2°49.597 12.202515 4.128269 31.561436 -0.916087
2004-02-24 07:55:32 51°18.771 2°49.576 12.202515 4.128269 31.561436 -0.916087
2004-02-24 07:55:38 51°18.784 2°49.546 12.203603 4.127952 31.560449 -0.848668
2004-02-24 07:55:42 51°18.793 2°49.526 12.203331 4.127742 31.558651 -0.882377
2004-02-24 07:55:48 51°18.807 2°49.496 12.205553 4.12732 31.556765 -0.882377
2004-02-24 07:55:53 51°18.818 2°49.47 12.206914 4.128058 31.562489 -0.882377
2004-02-24 07:55:58 51°18.829 2°49.445 12.205508 4.127214 31.555295 -0.848668
2004-02-24 07:56:02 51°18.838 2°49.425 12.205508 4.127214 31.555295 -0.848668
2004-02-24 07:56:08 51°18.852 2°49.395 12.206869 4.126898 31.553738 -0.848668
2004-02-24 07:56:12 51°18.861 2°49.374 12.21086 4.127742 31.560932 -0.882377
2004-02-24 07:56:18 51°18.874 2°49.343 12.209409 4.127214 31.557006 -0.848668
2004-02-24 07:56:22 51°18.884 2°49.323 12.211359 4.127109 31.557247 -0.848668
2004-02-24 07:56:28 51°18.897 2°49.292 12.213218 4.127531 31.560274 -0.882377
2004-02-24 07:56:32 51°18.906 2°49.271 12.213218 4.127531 31.560274 -0.882377
2004-02-24 07:56:38 51°18.92 2°49.24 12.212492 4.126898 31.556018 -0.882377
2004-02-24 07:56:43 51°18.932 2°49.214 12.213354 4.127004 31.556918 -0.882377
2004-02-24 07:56:48 51°18.943 2°49.188 12.216347 4.12732 31.560186 -0.882377
2004-02-24 07:56:53 51°18.955 2°49.163 12.218887 4.127847 31.563541 -0.916087
2004-02-24 07:56:58 51°18.966 2°49.137 12.218841 4.12732 31.559045 -0.848668
2004-02-24 07:57:02 51°18.975 2°49.117 12.218841 4.12732 31.559045 -0.848668
2004-02-24 07:57:08 51°18.989 2°49.086 12.215395 4.126687 31.55536 -0.882377
2004-02-24 07:57:13 51°19 2°49.06 12.220972 4.127214 31.560997 -0.882377
2004-02-24 07:57:18 51°19.012 2°49.035 12.219703 4.126476 31.555272 -0.882377
2004-02-24 07:57:22 51°19.021 2°49.014 12.222287 4.127214 31.560997 -0.848668
2004-02-24 07:57:28 51°19.035 2°48.984 12.223874 4.126793 31.55797 -0.848668
2004-02-24 07:57:32 51°19.044 2°48.963 12.223874 4.126793 31.55797 -0.848668
2004-02-24 07:57:38 51°19.058 2°48.932 12.224555 4.126687 31.557641 -0.882377
2004-02-24 07:57:42 51°19.067 2°48.912 12.225869 4.126898 31.55944 -0.848668
2004-02-24 07:57:48 51°19.081 2°48.881 12.223874 4.126476 31.555843 -0.882377
2004-02-24 07:57:53 51°19.092 2°48.855 12.225507 4.126687 31.558212 -0.882377
2004-02-24 07:57:58 51°19.103 2°48.829 12.225099 4.126055 31.554526 -0.882377
2004-02-24 07:58:03 51°19.114 2°48.803 12.225099 4.126055 31.554526 -0.882377
2004-02-24 07:58:08 51°19.126 2°48.777 12.230494 4.126476 31.558124 -0.882377
2004-02-24 07:58:13 51°19.137 2°48.752 12.229089 4.126266 31.556895 -0.882377
2004-02-24 07:58:18 51°19.148 2°48.726 12.231809 4.126687 31.559922 -0.848668
2004-02-24 07:58:23 51°19.16 2°48.7 12.233169 4.126266 31.557466 -0.882377
2004-02-24 07:58:28 51°19.171 2°48.675 12.234892 4.126687 31.561063 -0.848668
2004-02-24 07:58:33 51°19.182 2°48.649 12.234892 4.126687 31.561063 -0.848668
2004-02-24 07:58:38 51°19.193 2°48.623 12.234166 4.126055 31.555667 -0.882377
2004-02-24 07:58:42 51°19.203 2°48.603 12.234166 4.125949 31.555338 -0.882377
2004-02-24 07:58:48 51°19.216 2°48.572 12.238519 4.12616 31.557707 -0.882377
2004-02-24 07:58:52 51°19.225 2°48.552 12.236977 4.125949 31.555908 -0.848668
2004-02-24 07:58:58 51°19.239 2°48.521 12.237249 4.125844 31.556149 -0.882377
2004-02-24 07:59:02 51°19.248 2°48.501 12.237249 4.125844 31.556149 -0.882377
2004-02-24 07:59:08 51°19.261 2°48.471 12.24083 4.126266 31.559747 -0.882377
2004-02-24 07:59:12 51°19.27 2°48.45 12.243052 4.126582 31.562446 -0.882377
2004-02-24 07:59:18 51°19.283 2°48.42 12.239788 4.125633 31.555491 -0.882377
2004-02-24 07:59:22 51°19.292 2°48.399 12.237431 4.125317 31.553363 -0.882377
2004-02-24 07:59:28 51°19.306 2°48.369 12.243278 4.125633 31.556061 -0.848668
2004-02-24 07:59:33 51°19.317 2°48.343 12.243278 4.125633 31.556061 -0.848668
2004-02-24 07:59:38 51°19.327 2°48.318 12.244004 4.126055 31.56023 -0.848668
2004-02-24 07:59:43 51°19.338 2°48.292 12.239516 4.125633 31.556061 -0.882377
2004-02-24 07:59:48 51°19.348 2°48.266 12.242689 4.125633 31.557773 -0.882377
2004-02-24 07:59:53 51°19.359 2°48.24 12.24423 4.125739 31.558672 -0.882377
2004-02-24 07:59:58 51°19.369 2°48.213 12.250621 4.126055 31.561941 -0.882377
2004-02-24 08:00:02 51°19.377 2°48.193 12.250621 4.126055 31.561941 -0.882377
2004-02-24 08:00:08 51°19.389 2°48.161 12.245953 4.125528 31.557444 -0.848668
2004-02-24 08:00:13 51°19.399 2°48.135 12.247131 4.125211 31.555315 -0.848668
2004-02-24 08:00:18 51°19.409 2°48.108 12.251392 4.125739 31.560384 -0.882377
2004-02-24 08:00:23 51°19.42 2°48.082 12.250712 4.125106 31.555557 -0.848668
2004-02-24 08:00:28 51°19.43 2°48.056 12.252616 4.125422 31.558826 -0.848668
2004-02-24 08:00:32 51°19.438 2°48.035 12.252616 4.125422 31.558826 -0.848668
2004-02-24 08:00:38 51°19.45 2°48.003 12.250712 4.125211 31.557597 -0.882377
2004-02-24 08:00:43 51°19.46 2°47.977 12.251346 4.125317 31.557926 -0.916087
2004-02-24 08:00:48 51°19.47 2°47.951 12.257646 4.125422 31.559397 -0.882377
2004-02-24 08:00:52 51°19.479 2°47.929 12.258281 4.125317 31.559067 -0.882377
2004-02-24 08:00:58 51°19.491 2°47.898 12.256287 4.125317 31.559067 -0.882377
2004-02-24 08:01:03 51°19.501 2°47.871 12.256287 4.125317 31.559067 -0.882377
2004-02-24 08:01:08 51°19.512 2°47.845 12.262722 4.125422 31.561108 -0.848668
2004-02-24 08:01:13 51°19.522 2°47.819 12.256694 4.124895 31.557181 -0.882377
2004-02-24 08:01:18 51°19.532 2°47.793 12.264398 4.124895 31.558322 -0.882377
2004-02-24 08:01:22 51°19.54 2°47.771 12.25887 4.125211 31.55988 -0.882377
2004-02-24 08:01:28 51°19.552 2°47.74 12.25742 4.124684 31.555952 -0.848668
2004-02-24 08:01:33 51°19.562 2°47.713 12.25742 4.124684 31.555952 -0.848668
2004-02-24 08:01:38 51°19.572 2°47.687 12.262269 4.124684 31.556522 -0.916087
2004-02-24 08:01:42 51°19.58 2°47.665 12.263673 4.125001 31.559792 -0.882377
2004-02-24 08:01:48 51°19.593 2°47.634 12.267661 4.12479 31.558563 -0.848668
2004-02-24 08:01:53 51°19.603 2°47.607 12.268613 4.124895 31.560604 -0.882377
2004-02-24 08:01:58 51°19.613 2°47.581 12.263809 4.124368 31.555535 -0.882377
2004-02-24 08:02:02 51°19.621 2°47.56 12.263809 4.124368 31.555535 -0.882377
2004-02-24 08:02:08 51°19.634 2°47.528 12.271694 4.124895 31.560604 -0.882377
2004-02-24 08:02:13 51°19.644 2°47.502 12.269972 4.124263 31.555206 -0.848668
2004-02-24 08:02:18 51°19.654 2°47.476 12.268975 4.12363 31.552089 -0.882377
2004-02-24 08:02:22 51°19.662 2°47.455 12.275681 4.124579 31.559617 -0.882377
2004-02-24 08:02:28 51°19.673 2°47.422 12.270244 4.124263 31.558059 -0.848668
2004-02-24 08:02:33 51°19.682 2°47.395 12.270244 4.124263 31.558059 -0.848668
2004-02-24 08:02:38 51°19.691 2°47.367 12.271649 4.124157 31.556588 -0.882377
2004-02-24 08:02:43 51°19.7 2°47.34 12.277448 4.124368 31.55953 -0.848668
2004-02-24 08:02:48 51°19.708 2°47.312 12.278762 4.124473 31.561 -0.882377
2004-02-24 08:02:52 51°19.715 2°47.289 12.27917 4.124263 31.559771 -0.882377
2004-02-24 08:02:58 51°19.724 2°47.255 12.280483 4.124263 31.559201 -0.848668
2004-02-24 08:03:03 51°19.732 2°47.226 12.280483 4.124263 31.559201 -0.848668
2004-02-24 08:03:08 51°19.741 2°47.199 12.279396 4.123841 31.555601 -0.848668
2004-02-24 08:03:13 51°19.749 2°47.17 12.280755 4.123735 31.556413 -0.882377
2004-02-24 08:03:18 51°19.757 2°47.142 12.284968 4.124473 31.561 -0.848668
2004-02-24 08:03:22 51°19.763 2°47.119 12.282749 4.12363 31.555513 -0.848668
2004-02-24 08:03:28 51°19.773 2°47.085 12.281435 4.12363 31.555513 -0.882377
2004-02-24 08:03:32 51°19.78 2°47.063 12.281435 4.12363 31.555513 -0.882377
2004-02-24 08:03:38 51°19.79 2°47.029 12.285557 4.123735 31.556413 -0.848668
2004-02-24 08:03:43 51°19.798 2°47.001 12.282522 4.12363 31.556655 -0.882377
2004-02-24 08:03:48 51°19.806 2°46.972 12.288094 4.123314 31.555097 -0.882377
2004-02-24 08:03:53 51°19.814 2°46.944 12.292714 4.123841 31.560167 -0.848668
2004-02-24 08:03:58 51°19.822 2°46.916 12.288094 4.12363 31.558367 -0.916087
2004-02-24 08:04:02 51°19.829 2°46.893 12.288094 4.12363 31.558367 -0.916087
2004-02-24 08:04:08 51°19.838 2°46.859 12.290903 4.123525 31.556897 -0.916087
2004-02-24 08:04:12 51°19.845 2°46.837 12.291401 4.122997 31.554109 -0.848668
2004-02-24 08:04:18 51°19.854 2°46.803 12.291265 4.123314 31.556238 -0.882377
2004-02-24 08:04:23 51°19.861 2°46.773 12.292443 4.123103 31.556151 -0.848668
2004-02-24 08:04:28 51°19.868 2°46.744 12.291944 4.122997 31.555251 -0.882377
2004-02-24 08:04:33 51°19.874 2°46.715 12.291944 4.122997 31.555251 -0.882377
2004-02-24 08:04:38 51°19.88 2°46.685 12.292714 4.122576 31.552792 -0.882377
2004-02-24 08:04:43 51°19.886 2°46.655 12.296066 4.122892 31.555492 -0.882377
2004-02-24 08:04:48 51°19.891 2°46.625 12.297063 4.122997 31.556392 -0.882377
2004-02-24 08:04:53 51°19.897 2°46.595 12.294481 4.122576 31.552221 -0.882377
2004-02-24 08:04:58 51°19.902 2°46.564 12.300052 4.122787 31.555734 -0.848668
2004-02-24 08:05:02 51°19.907 2°46.54 12.300052 4.122787 31.555734 -0.848668
2004-02-24 08:05:08 51°19.914 2°46.504 12.294843 4.122365 31.552134 -0.916087
2004-02-24 08:05:13 51°19.92 2°46.474 12.301999 4.122997 31.557534 -0.882377
2004-02-24 08:05:18 51°19.926 2°46.443 12.297063 4.122259 31.552375 -0.882377
2004-02-24 08:05:23 51°19.932 2°46.413 12.302362 4.12247 31.555888 -0.882377
2004-02-24 08:05:28 51°19.937 2°46.383 12.303086 4.122049 31.552288 -0.882377
2004-02-24 08:05:33 51°19.943 2°46.353 12.303086 4.122049 31.552288 -0.882377
2004-02-24 08:05:38 51°19.949 2°46.323 12.306981 4.122681 31.55826 -0.848668
2004-02-24 08:05:43 51°19.955 2°46.293 12.301501 4.122259 31.554659 -0.882377
2004-02-24 08:05:48 51°19.961 2°46.263 12.308883 4.122259 31.555801 -0.882377
2004-02-24 08:05:53 51°19.967 2°46.233 12.301999 4.122259 31.555801 -0.882377
2004-02-24 08:05:58 51°19.973 2°46.203 12.303901 4.122154 31.554901 -0.848668
2004-02-24 08:06:02 51°19.978 2°46.179 12.303901 4.122154 31.554901 -0.848668
2004-02-24 08:06:08 51°19.985 2°46.143 12.305034 4.122049 31.554571 -0.882377
2004-02-24 08:06:13 51°19.991 2°46.113 12.308385 4.121943 31.555384 -0.848668
2004-02-24 08:06:18 51°19.997 2°46.083 12.311057 4.121732 31.554726 -0.882377
2004-02-24 08:06:22 51°20.001 2°46.059 12.312958 4.122049 31.556856 -0.882377
2004-02-24 08:06:28 51°20.009 2°46.022 12.313321 4.121521 31.553496 -0.848668
2004-02-24 08:06:33 51°20.015 2°45.992 12.313321 4.121521 31.553496 -0.848668
2004-02-24 08:06:38 51°20.021 2°45.961 12.312279 4.121416 31.553738 -0.848668
2004-02-24 08:06:43 51°20.026 2°45.931 12.312642 4.121627 31.55611 -0.848668
2004-02-24 08:06:48 51°20.032 2°45.901 12.319524 4.121838 31.557339 -0.882377
2004-02-24 08:06:53 51°20.037 2°45.87 12.313819 4.120783 31.55062 -0.882377
2004-02-24 08:06:58 51°20.043 2°45.84 12.32043 4.121838 31.559053 -0.882377
2004-02-24 08:07:03 51°20.049 2°45.81 12.32043 4.121838 31.559053 -0.882377
2004-02-24 08:07:08 51°20.055 2°45.779 12.321426 4.121522 31.557494 -0.882377
2004-02-24 08:07:13 51°20.061 2°45.749 12.319343 4.121311 31.557407 -0.882377
2004-02-24 08:07:18 51°20.067 2°45.718 12.319886 4.1211 31.556177 -0.848668
2004-02-24 08:07:22 51°20.072 2°45.694 12.322603 4.121205 31.557078 -0.882377
2004-02-24 08:07:28 51°20.078 2°45.657 12.324821 4.121205 31.558791 -0.848668
2004-02-24 08:07:33 51°20.085 2°45.627 12.324821 4.121205 31.558791 -0.848668
2004-02-24 08:07:38 51°20.091 2°45.597 12.320701 4.120994 31.555848 -0.882377
2004-02-24 08:07:43 51°20.097 2°45.566 12.327311 4.120784 31.556332 -0.882377
2004-02-24 08:07:48 51°20.103 2°45.535 12.323599 4.1211 31.558462 -0.848668
2004-02-24 08:07:52 51°20.108 2°45.511 12.327945 4.120467 31.554773 -0.882377
2004-02-24 08:07:58 51°20.115 2°45.474 12.32704 4.120362 31.555015 -0.882377
2004-02-24 08:08:02 51°20.12 2°45.45 12.32704 4.120362 31.555015 -0.882377
2004-02-24 08:08:08 51°20.127 2°45.413 12.331657 4.120889 31.559518 -0.882377
2004-02-24 08:08:12 51°20.132 2°45.389 12.328534 4.120046 31.554027 -0.848668
2004-02-24 08:08:18 51°20.139 2°45.353 12.326134 4.120151 31.555499 -0.848668
2004-02-24 08:08:22 51°20.144 2°45.329 12.323689 4.11994 31.554269 -0.882377
2004-02-24 08:08:28 51°20.151 2°45.292 12.33718 4.120256 31.557543 -0.848668
2004-02-24 08:08:33 51°20.157 2°45.262 12.33718 4.120256 31.557543 -0.848668
2004-02-24 08:08:38 51°20.163 2°45.232 12.329982 4.119624 31.554424 -0.848668
2004-02-24 08:08:42 51°20.167 2°45.207 12.337904 4.120467 31.561058 -0.882377
2004-02-24 08:08:48 51°20.174 2°45.171 12.336229 4.119835 31.556225 -0.882377
2004-02-24 08:08:53 51°20.179 2°45.141 12.338764 4.119835 31.556797 -0.848668
2004-02-24 08:08:58 51°20.184 2°45.11 12.339036 4.119518 31.555809 -0.848668
2004-02-24 08:09:03 51°20.189 2°45.08 12.339036 4.119518 31.555809 -0.848668
2004-02-24 08:09:08 51°20.193 2°45.049 12.341797 4.119624 31.557853 -0.882377
2004-02-24 08:09:12 51°20.196 2°45.024 12.339353 4.119835 31.560226 -0.882377
2004-02-24 08:09:18 51°20.201 2°44.987 12.339579 4.119308 31.555722 -0.848668
2004-02-24 08:09:23 51°20.206 2°44.957 12.345599 4.119413 31.557766 -0.882377
2004-02-24 08:09:28 51°20.21 2°44.926 12.336682 4.118991 31.555306 -0.848668
2004-02-24 08:09:32 51°20.214 2°44.902 12.336682 4.118991 31.555306 -0.848668
2004-02-24 08:09:38 51°20.218 2°44.866 12.340529 4.118991 31.555877 -0.916087
2004-02-24 08:09:43 51°20.223 2°44.835 12.349129 4.119097 31.557921 -0.882377
2004-02-24 08:09:48 51°20.227 2°44.805 12.340756 4.118886 31.557263 -0.882377
2004-02-24 08:09:52 51°20.23 2°44.781 12.342974 4.118253 31.553572 -0.848668
2004-02-24 08:09:58 51°20.235 2°44.744 12.352704 4.119202 31.561681 -0.848668
2004-02-24 08:10:03 51°20.24 2°44.714 12.352704 4.119202 31.561681 -0.848668
2004-02-24 08:10:08 51°20.244 2°44.684 12.339805 4.118359 31.55676 -0.882377
2004-02-24 08:10:12 51°20.247 2°44.66 12.345644 4.118148 31.556101 -0.882377
2004-02-24 08:10:18 51°20.252 2°44.623 12.350984 4.118464 31.559376 -0.882377
2004-02-24 08:10:23 51°20.257 2°44.593 12.344377 4.117832 31.555685 -0.882377
2004-02-24 08:10:28 51°20.261 2°44.563 12.352976 4.118043 31.558631 -0.882377
2004-02-24 08:10:32 51°20.264 2°44.538 12.352976 4.118043 31.558631 -0.882377
2004-02-24 08:10:38 51°20.269 2°44.502 12.352568 4.117937 31.558302 -0.882377
2004-02-24 08:10:43 51°20.274 2°44.472 12.347273 4.117515 31.555841 -0.882377
2004-02-24 08:10:48 51°20.278 2°44.442 12.35379 4.117832 31.559116 -0.848668
2004-02-24 08:10:52 51°20.281 2°44.417 12.35017 4.117621 31.558458 -0.848668
2004-02-24 08:10:58 51°20.286 2°44.381 12.355691 4.117832 31.560832 -0.848668
2004-02-24 08:11:02 51°20.288 2°44.356 12.355691 4.117832 31.560832 -0.848668
2004-02-24 08:11:08 51°20.293 2°44.32 12.360669 4.117305 31.558614 -0.848668
2004-02-24 08:11:13 51°20.297 2°44.289 12.354288 4.11741 31.559515 -0.882377
2004-02-24 08:11:18 51°20.3 2°44.259 12.361845 4.116988 31.557626 -0.882377
2004-02-24 08:11:22 51°20.304 2°44.235 12.358451 4.117199 31.56 -0.882377
2004-02-24 08:11:28 51°20.308 2°44.198 12.366641 4.116883 31.559012 -0.882377
2004-02-24 08:11:33 51°20.312 2°44.168 12.366641 4.116883 31.559012 -0.882377
2004-02-24 08:11:38 51°20.315 2°44.138 12.353066 4.116672 31.558354 -0.882377
2004-02-24 08:11:42 51°20.319 2°44.114 12.366324 4.116778 31.559827 -0.848668
2004-02-24 08:11:48 51°20.324 2°44.078 12.365239 4.116356 31.557366 -0.882377
2004-02-24 08:11:53 51°20.328 2°44.048 12.359311 4.116356 31.55851 -0.882377
2004-02-24 08:11:58 51°20.331 2°44.017 12.362931 4.11604 31.55695 -0.848668
2004-02-24 08:12:03 51°20.336 2°43.987 12.362931 4.11604 31.55695 -0.848668
2004-02-24 08:12:08 51°20.339 2°43.957 12.364605 4.116356 31.560799 -0.882377
2004-02-24 08:12:13 51°20.342 2°43.926 12.366189 4.115934 31.558337 -0.848668
2004-02-24 08:12:18 51°20.346 2°43.896 12.364379 4.115301 31.553499 -0.882377
2004-02-24 08:12:23 51°20.349 2°43.865 12.365193 4.115407 31.557262 -0.848668
2004-02-24 08:12:28 51°20.353 2°43.835 12.365601 4.115512 31.558164 -0.882377
2004-02-24 08:12:33 51°20.356 2°43.804 12.365601 4.115512 31.558164 -0.882377
2004-02-24 08:12:38 51°20.359 2°43.773 12.371844 4.115407 31.560124 -0.882377
2004-02-24 08:12:43 51°20.361 2°43.743 12.366867 4.115512 31.561598 -0.882377
2004-02-24 08:12:48 51°20.364 2°43.712 12.368587 4.115302 31.560367 -0.882377
2004-02-24 08:12:53 51°20.366 2°43.681 12.367818 4.114564 31.556344 -0.916087
2004-02-24 08:12:58 51°20.369 2°43.65 12.37664 4.114669 31.558391 -0.882377
2004-02-24 08:13:03 51°20.37 2°43.619 12.37664 4.114669 31.558391 -0.882377
2004-02-24 08:13:08 51°20.373 2°43.588 12.376775 4.114985 31.561097 -0.882377
2004-02-24 08:13:12 51°20.375 2°43.564 12.370351 4.114036 31.554697 -0.848668
2004-02-24 08:13:18 51°20.377 2°43.529 12.378585 4.114458 31.560595 -0.882377
2004-02-24 08:13:22 51°20.379 2°43.508 12.378042 4.114247 31.558791 -0.916087
2004-02-24 08:13:28 51°20.381 2°43.479 12.370894 4.113931 31.558375 -0.882377
2004-02-24 08:13:33 51°20.383 2°43.457 12.370894 4.113931 31.558375 -0.882377
2004-02-24 08:13:38 51°20.384 2°43.436 12.372161 4.113615 31.55796 -0.882377
2004-02-24 08:13:42 51°20.385 2°43.42 12.381842 4.113931 31.561239 -0.848668
2004-02-24 08:13:48 51°20.385 2°43.398 12.378223 4.113299 31.557544 -0.882377
2004-02-24 08:13:53 51°20.385 2°43.381 12.378675 4.113615 31.561396 -0.848668
2004-02-24 08:13:58 51°20.385 2°43.365 12.380982 4.113299 31.559835 -0.916087
2004-02-24 08:14:02 51°20.385 2°43.353 12.380982 4.113299 31.559835 -0.916087
2004-02-24 08:14:08 51°20.384 2°43.336 12.376368 4.113088 31.558603 -0.882377
2004-02-24 08:14:13 51°20.383 2°43.322 12.384963 4.112982 31.557701 -0.848668
2004-02-24 08:14:18 51°20.383 2°43.309 12.38623 4.112771 31.557615 -0.882377
2004-02-24 08:14:23 51°20.382 2°43.297 12.382747 4.112771 31.557615 -0.848668
2004-02-24 08:14:28 51°20.38 2°43.286 12.388446 4.112561 31.558102 -0.882377
2004-02-24 08:14:33 51°20.379 2°43.275 12.388446 4.112561 31.558102 -0.882377
2004-02-24 08:14:38 51°20.378 2°43.265 12.389215 4.112455 31.557199 -0.848668
2004-02-24 08:14:43 51°20.377 2°43.254 12.394823 4.112244 31.557686 -0.882377
2004-02-24 08:14:48 51°20.375 2°43.245 12.387677 4.112033 31.556454 -0.882377
2004-02-24 08:14:52 51°20.374 2°43.238 12.392109 4.111928 31.557843 -0.882377
2004-02-24 08:14:58 51°20.373 2°43.227 12.386275 4.111401 31.554477 -0.848668
2004-02-24 08:15:02 51°20.372 2°43.221 12.386275 4.111401 31.554477 -0.848668
2004-02-24 08:15:08 51°20.37 2°43.211 12.389984 4.111295 31.55472 -0.848668
2004-02-24 08:15:13 51°20.369 2°43.204 12.395863 4.111295 31.555866 -0.882377
2004-02-24 08:15:18 51°20.367 2°43.197 12.391431 4.111401 31.557342 -0.882377
2004-02-24 08:15:22 51°20.367 2°43.192 12.394778 4.110979 31.554878 -0.848668
2004-02-24 08:15:28 51°20.365 2°43.184 12.401064 4.11119 31.557256 -0.848668
2004-02-24 08:15:33 51°20.364 2°43.178 12.401064 4.11119 31.557256 -0.848668
2004-02-24 08:15:38 51°20.363 2°43.172 12.396225 4.110557 31.554132 -0.882377
2004-02-24 08:15:42 51°20.362 2°43.168 12.39428 4.110557 31.555279 -0.882377
2004-02-24 08:15:48 51°20.361 2°43.161 12.396587 4.110347 31.555193 -0.882377
2004-02-24 08:15:53 51°20.36 2°43.156 12.400793 4.110452 31.556095 -0.848668
2004-02-24 08:15:58 51°20.359 2°43.151 12.399617 4.109925 31.553301 -0.848668
2004-02-24 08:16:02 51°20.358 2°43.147 12.399617 4.109925 31.553301 -0.848668
2004-02-24 08:16:08 51°20.358 2°43.142 12.404998 4.109925 31.555021 -0.848668
2004-02-24 08:16:13 51°20.357 2°43.137 12.397582 4.109503 31.553129 -0.882377
2004-02-24 08:16:18 51°20.356 2°43.133 12.404546 4.10982 31.555838 -0.848668
2004-02-24 08:16:22 51°20.356 2°43.13 12.405134 4.108976 31.550335 -0.882377
2004-02-24 08:16:28 51°20.355 2°43.125 12.406083 4.109292 31.554763 -0.882377
2004-02-24 08:16:33 51°20.355 2°43.121 12.406083 4.109292 31.554763 -0.882377
2004-02-24 08:16:38 51°20.354 2°43.117 12.403551 4.108765 31.551968 -0.882377
2004-02-24 08:16:43 51°20.354 2°43.113 12.408118 4.109187 31.556727 -0.848668
2004-02-24 08:16:48 51°20.354 2°43.108 12.404139 4.108765 31.553688 -0.848668
2004-02-24 08:16:53 51°20.355 2°43.101 12.408254 4.108449 31.552126 -0.882377
2004-02-24 08:16:58 51°20.357 2°43.092 12.410424 4.108554 31.553029 -0.882377
2004-02-24 08:17:03 51°20.359 2°43.083 12.410424 4.108554 31.553029 -0.882377
2004-02-24 08:17:08 51°20.363 2°43.072 12.4116 4.108133 31.550564 -0.916087
2004-02-24 08:17:13 51°20.367 2°43.06 12.406355 4.107711 31.548671 -0.882377
2004-02-24 08:17:18 51°20.372 2°43.045 12.399074 4.107395 31.549976 -0.848668
2004-02-24 08:17:22 51°20.376 2°43.033 12.412097 4.108027 31.557116 -0.882377
2004-02-24 08:17:28 51°20.382 2°43.011 12.414494 4.107817 31.555883 -0.882377
2004-02-24 08:17:33 51°20.387 2°42.991 12.414494 4.107817 31.555883 -0.882377
2004-02-24 08:17:38 51°20.391 2°42.969 12.410289 4.107606 31.555224 -0.882377
2004-02-24 08:17:43 51°20.396 2°42.947 12.409113 4.107078 31.551281 -0.882377
2004-02-24 08:17:48 51°20.401 2°42.923 12.413182 4.107184 31.553332 -0.848668
2004-02-24 08:17:53 51°20.406 2°42.897 12.412821 4.106973 31.551525 -0.882377
2004-02-24 08:17:58 51°20.411 2°42.87 12.412775 4.106868 31.55349 -0.882377
2004-02-24 08:18:02 51°20.415 2°42.848 12.412775 4.106868 31.55349 -0.882377
2004-02-24 08:18:08 51°20.422 2°42.814 12.409565 4.106551 31.55078 -0.848668
2004-02-24 08:18:13 51°20.428 2°42.785 12.416754 4.106551 31.552501 -0.882377
2004-02-24 08:18:18 51°20.433 2°42.755 12.417206 4.106762 31.554308 -0.882377
2004-02-24 08:18:22 51°20.437 2°42.731 12.417071 4.10613 31.550034 -0.882377
2004-02-24 08:18:28 51°20.444 2°42.696 12.410741 4.105813 31.549045 -0.882377
2004-02-24 08:18:33 51°20.45 2°42.666 12.410741 4.105813 31.549045 -0.882377
2004-02-24 08:18:38 51°20.456 2°42.635 12.421139 4.106024 31.550852 -0.848668
2004-02-24 08:18:43 51°20.462 2°42.605 12.418382 4.105708 31.550437 -0.882377
2004-02-24 08:18:48 51°20.467 2°42.575 12.416845 4.105603 31.550107 -0.882377
2004-02-24 08:18:53 51°20.473 2°42.545 12.415669 4.105392 31.550595 -0.882377
2004-02-24 08:18:58 51°20.479 2°42.515 12.424846 4.105497 31.551499 -0.882377
2004-02-24 08:19:02 51°20.484 2°42.49 12.424846 4.105497 31.551499 -0.882377
2004-02-24 08:19:08 51°20.49 2°42.454 12.422315 4.105286 31.550839 -0.848668
2004-02-24 08:19:12 51°20.494 2°42.429 12.424846 4.105286 31.551987 -0.882377
2004-02-24 08:19:18 51°20.501 2°42.392 12.418517 4.104865 31.54952 -0.848668
2004-02-24 08:19:22 51°20.505 2°42.368 12.426609 4.104865 31.54952 -0.882377
2004-02-24 08:19:28 51°20.511 2°42.331 12.425118 4.104654 31.548287 -0.848668
2004-02-24 08:19:33 51°20.517 2°42.301 12.425118 4.104654 31.548287 -0.848668
2004-02-24 08:19:38 51°20.522 2°42.27 12.427604 4.104443 31.547053 -0.882377
2004-02-24 08:19:43 51°20.527 2°42.24 12.427242 4.10381 31.543352 -0.848668
2004-02-24 08:19:48 51°20.532 2°42.209 12.423626 4.104337 31.549019 -0.882377
2004-02-24 08:19:52 51°20.537 2°42.184 12.427604 4.10381 31.545648 -0.882377
2004-02-24 08:19:58 51°20.543 2°42.147 12.429276 4.103599 31.544414 -0.848668
2004-02-24 08:20:03 51°20.549 2°42.117 12.429276 4.103599 31.544414 -0.848668
2004-02-24 08:20:08 51°20.554 2°42.086 12.428689 4.103599 31.54671 -0.882377
2004-02-24 08:20:13 51°20.56 2°42.055 12.435785 4.103916 31.549422 -0.882377
2004-02-24 08:20:18 51°20.565 2°42.024 12.428689 4.103283 31.543998 -0.848668
2004-02-24 08:20:22 51°20.57 2°42 12.433571 4.103494 31.546954 -0.882377
2004-02-24 08:20:28 51°20.576 2°41.963 12.430452 4.103072 31.544487 -0.848668
2004-02-24 08:20:33 51°20.582 2°41.932 12.430452 4.103072 31.544487 -0.848668
2004-02-24 08:20:38 51°20.588 2°41.901 12.438859 4.103178 31.545391 -0.882377
2004-02-24 08:20:43 51°20.593 2°41.87 12.430994 4.102756 31.542923 -0.882377
2004-02-24 08:20:48 51°20.598 2°41.84 12.433616 4.102651 31.543167 -0.848668
2004-02-24 08:20:53 51°20.604 2°41.809 12.432395 4.102334 31.541603 -0.848668
2004-02-24 08:20:58 51°20.61 2°41.779 12.431175 4.102229 31.540699 -0.882377
2004-02-24 08:21:03 51°20.615 2°41.748 12.431175 4.102229 31.540699 -0.882377
2004-02-24 08:21:08 51°20.62 2°41.717 12.438045 4.102229 31.54357 -0.882377
2004-02-24 08:21:13 51°20.624 2°41.686 12.438316 4.102229 31.54357 -0.882377
2004-02-24 08:21:18 51°20.629 2°41.655 12.439401 4.102124 31.544388 -0.848668
2004-02-24 08:21:22 51°20.632 2°41.63 12.439356 4.102124 31.544962 -0.882377
2004-02-24 08:21:28 51°20.637 2°41.593 12.437322 4.101807 31.54225 -0.882377
2004-02-24 08:21:33 51°20.641 2°41.561 12.437322 4.101807 31.54225 -0.882377
2004-02-24 08:21:38 51°20.645 2°41.53 12.444237 4.101491 31.540686 -0.848668
2004-02-24 08:21:42 51°20.648 2°41.505 12.437548 4.101807 31.542824 -0.882377
2004-02-24 08:21:48 51°20.653 2°41.468 12.444508 4.101596 31.54159 -0.882377
2004-02-24 08:21:53 51°20.657 2°41.437 12.445457 4.100858 31.538132 -0.882377
2004-02-24 08:21:58 51°20.661 2°41.406 12.440395 4.10128 31.541174 -0.882377
2004-02-24 08:22:03 51°20.665 2°41.375 12.440395 4.10128 31.541174 -0.882377
2004-02-24 08:22:08 51°20.669 2°41.344 12.444508 4.100964 31.53961 -0.916087
2004-02-24 08:22:13 51°20.673 2°41.313 12.447626 4.100964 31.540759 -0.882377
2004-02-24 08:22:18 51°20.677 2°41.282 12.436689 4.100437 31.537386 -0.848668
2004-02-24 08:22:23 51°20.68 2°41.251 12.447265 4.100753 31.541247 -0.848668
2004-02-24 08:22:28 51°20.682 2°41.22 12.444282 4.100542 31.540013 -0.848668
2004-02-24 08:22:32 51°20.685 2°41.195 12.444282 4.100542 31.540013 -0.848668
2004-02-24 08:22:38 51°20.689 2°41.158 12.449841 4.100331 31.538778 -0.882377
2004-02-24 08:22:43 51°20.692 2°41.126 12.448394 4.10012 31.537544 -0.848668
2004-02-24 08:22:48 51°20.695 2°41.096 12.445999 4.09991 31.537458 -0.848668
2004-02-24 08:22:52 51°20.698 2°41.071 12.451874 4.100015 31.538363 -0.882377
2004-02-24 08:22:58 51°20.702 2°41.034 12.446451 4.099593 31.535319 -0.882377
2004-02-24 08:23:03 51°20.705 2°41.003 12.446451 4.099593 31.535319 -0.882377
2004-02-24 08:23:08 51°20.708 2°40.971 12.44966 4.099804 31.537703 -0.848668
2004-02-24 08:23:13 51°20.711 2°40.94 12.447626 4.099593 31.536468 -0.882377
2004-02-24 08:23:18 51°20.714 2°40.909 12.457296 4.099488 31.536138 -0.882377
2004-02-24 08:23:22 51°20.717 2°40.884 12.455263 4.099593 31.538191 -0.848668
2004-02-24 08:23:28 51°20.721 2°40.847 12.452778 4.099382 31.536382 -0.882377
2004-02-24 08:23:32 51°20.723 2°40.822 12.452778 4.099382 31.536382 -0.882377
2004-02-24 08:23:38 51°20.727 2°40.785 12.458607 4.099699 31.53967 -0.882377
2004-02-24 08:23:43 51°20.731 2°40.754 12.457567 4.099277 31.537201 -0.848668
2004-02-24 08:23:48 51°20.734 2°40.723 12.456709 4.099066 31.537115 -0.848668
2004-02-24 08:23:53 51°20.738 2°40.693 12.461724 4.09875 31.533827 -0.882377
2004-02-24 08:23:58 51°20.741 2°40.661 12.456618 4.098644 31.534646 -0.882377
2004-02-24 08:24:03 51°20.745 2°40.631 12.456618 4.098644 31.534646 -0.882377
2004-02-24 08:24:08 51°20.747 2°40.6 12.454766 4.09875 31.53555 -0.848668
2004-02-24 08:24:12 51°20.751 2°40.575 12.465067 4.098328 31.532506 -0.848668
2004-02-24 08:24:18 51°20.754 2°40.538 12.456709 4.098434 31.53456 -0.882377
2004-02-24 08:24:23 51°20.758 2°40.507 12.464345 4.098434 31.53456 -0.848668
2004-02-24 08:24:28 51°20.761 2°40.476 12.459691 4.098117 31.532421 -0.882377
2004-02-24 08:24:33 51°20.765 2°40.445 12.459691 4.098117 31.532421 -0.882377
2004-02-24 08:24:38 51°20.768 2°40.414 12.466603 4.098117 31.53357 -0.848668
2004-02-24 08:24:42 51°20.771 2°40.389 12.461137 4.097801 31.530855 -0.848668
2004-02-24 08:24:48 51°20.774 2°40.352 12.463893 4.097907 31.533484 -0.882377
2004-02-24 08:24:53 51°20.777 2°40.32 12.465203 4.097801 31.533154 -0.848668
2004-02-24 08:24:58 51°20.779 2°40.289 12.468185 4.097907 31.534058 -0.848668
2004-02-24 08:25:02 51°20.781 2°40.264 12.468185 4.097907 31.534058 -0.848668
2004-02-24 08:25:08 51°20.784 2°40.227 12.466649 4.097379 31.531258 -0.882377
2004-02-24 08:25:13 51°20.786 2°40.195 12.469766 4.097907 31.535782 -0.882377
2004-02-24 08:25:18 51°20.789 2°40.164 12.472115 4.097696 31.532249 -0.882377
2004-02-24 08:25:22 51°20.79 2°40.138 12.469992 4.097169 31.530598 -0.882377
2004-02-24 08:25:28 51°20.794 2°40.101 12.465881 4.097379 31.532407 -0.882377
2004-02-24 08:25:33 51°20.796 2°40.069 12.465881 4.097379 31.532407 -0.882377
2004-02-24 08:25:38 51°20.798 2°40.037 12.472386 4.096958 31.529363 -0.848668
2004-02-24 08:25:43 51°20.8 2°40.006 12.471528 4.097063 31.531991 -0.882377
2004-02-24 08:25:48 51°20.803 2°39.974 12.471392 4.096852 31.530756 -0.848668
2004-02-24 08:25:53 51°20.805 2°39.942 12.471934 4.096431 31.527711 -0.848668
2004-02-24 08:25:58 51°20.808 2°39.911 12.474735 4.096852 31.531906 -0.848668
2004-02-24 08:26:02 51°20.81 2°39.886 12.474735 4.096852 31.531906 -0.848668
2004-02-24 08:26:08 51°20.812 2°39.848 12.475638 4.096852 31.531331 -0.882377
2004-02-24 08:26:13 51°20.815 2°39.816 12.475593 4.096431 31.53001 -0.882377
2004-02-24 08:26:18 51°20.817 2°39.785 12.470489 4.096325 31.52853 -0.882377
2004-02-24 08:26:23 51°20.82 2°39.753 12.478213 4.096325 31.529105 -0.916087
2004-02-24 08:26:28 51°20.822 2°39.722 12.471799 4.096114 31.52787 -0.882377
2004-02-24 08:26:33 51°20.825 2°39.69 12.471799 4.096114 31.52787 -0.882377
2004-02-24 08:26:38 51°20.828 2°39.659 12.476948 4.09622 31.52935 -0.882377
2004-02-24 08:26:42 51°20.829 2°39.633 12.479704 4.096325 31.530255 -0.848668
2004-02-24 08:26:48 51°20.833 2°39.596 12.481691 4.095903 31.527784 -0.882377
2004-02-24 08:26:53 51°20.835 2°39.564 12.471663 4.095903 31.528359 -0.882377
2004-02-24 08:26:58 51°20.838 2°39.533 12.481736 4.096009 31.529264 -0.848668
2004-02-24 08:27:02 51°20.839 2°39.507 12.481736 4.096009 31.529264 -0.848668
2004-02-24 08:27:08 51°20.843 2°39.469 12.481239 4.095693 31.528273 -0.882377
2004-02-24 08:27:13 51°20.845 2°39.438 12.476 4.095587 31.528517 -0.848668
2004-02-24 08:27:18 51°20.848 2°39.406 12.482097 4.095693 31.529422 -0.848668
2004-02-24 08:27:22 51°20.85 2°39.381 12.479929 4.095165 31.525472 -0.848668
2004-02-24 08:27:28 51°20.853 2°39.343 12.480155 4.095482 31.528762 -0.882377
2004-02-24 08:27:33 51°20.856 2°39.312 12.480155 4.095482 31.528762 -0.882377
2004-02-24 08:27:38 51°20.858 2°39.28 12.483227 4.095376 31.529006 -0.848668
2004-02-24 08:27:42 51°20.861 2°39.255 12.481239 4.095165 31.527771 -0.848668
2004-02-24 08:27:48 51°20.863 2°39.218 12.480652 4.094955 31.525961 -0.848668
2004-02-24 08:27:53 51°20.866 2°39.186 12.479297 4.094849 31.52563 -0.882377
2004-02-24 08:27:58 51°20.869 2°39.155 12.488511 4.094955 31.526535 -0.882377
2004-02-24 08:28:03 51°20.871 2°39.123 12.488511 4.094955 31.526535 -0.882377
2004-02-24 08:28:08 51°20.874 2°39.092 12.487924 4.094744 31.527025 -0.882377
2004-02-24 08:28:13 51°20.876 2°39.061 12.484582 4.094849 31.52908 -0.882377
2004-02-24 08:28:18 51°20.88 2°39.029 12.485756 4.094744 31.527599 -0.882377
2004-02-24 08:28:23 51°20.881 2°38.998 12.485982 4.094744 31.529324 -0.882377
2004-02-24 08:28:28 51°20.884 2°38.967 12.48702 4.094638 31.527844 -0.848668
2004-02-24 08:28:33 51°20.886 2°38.935 12.48702 4.094638 31.527844 -0.848668
2004-02-24 08:28:38 51°20.889 2°38.904 12.491311 4.094217 31.525373 -0.882377
2004-02-24 08:28:43 51°20.891 2°38.872 12.491762 4.094217 31.525948 -0.848668
2004-02-24 08:28:48 51°20.894 2°38.841 12.489595 4.094217 31.525948 -0.848668
2004-02-24 08:28:53 51°20.896 2°38.809 12.488195 4.094428 31.528333 -0.848668
2004-02-24 08:28:58 51°20.898 2°38.777 12.494291 4.0939 31.524382 -0.848668
2004-02-24 08:29:02 51°20.9 2°38.752 12.494291 4.0939 31.524382 -0.848668
2004-02-24 08:29:08 51°20.903 2°38.714 12.487924 4.094006 31.525862 -0.882377
2004-02-24 08:29:13 51°20.906 2°38.682 12.491356 4.093795 31.524051 -0.848668
2004-02-24 08:29:18 51°20.908 2°38.651 12.487608 4.09369 31.524296 -0.882377
2004-02-24 08:29:23 51°20.911 2°38.619 12.501923 4.094111 31.528492 -0.882377
2004-02-24 08:29:28 51°20.913 2°38.587 12.497452 4.09369 31.525446 -0.882377
2004-02-24 08:29:33 51°20.916 2°38.555 12.497452 4.09369 31.525446 -0.882377
2004-02-24 08:29:38 51°20.918 2°38.524 12.489504 4.093373 31.52388 -0.882377
2004-02-24 08:29:42 51°20.921 2°38.498 12.497994 4.093479 31.524785 -0.882377
2004-02-24 08:29:48 51°20.923 2°38.46 12.497768 4.093373 31.52503 -0.882377
2004-02-24 08:29:53 51°20.926 2°38.429 12.50111 4.093162 31.523794 -0.882377
2004-02-24 08:29:58 51°20.928 2°38.397 12.502419 4.093268 31.525274 -0.882377
2004-02-24 08:30:02 51°20.93 2°38.372 12.502419 4.093268 31.525274 -0.882377
2004-02-24 08:30:08 51°20.933 2°38.333 12.50102 4.093268 31.525849 -0.916087
2004-02-24 08:30:13 51°20.936 2°38.301 12.49953 4.092952 31.524283 -0.882377
2004-02-24 08:30:18 51°20.938 2°38.27 12.498943 4.093057 31.525189 -0.848668
2004-02-24 08:30:22 51°20.94 2°38.244 12.504812 4.092952 31.524858 -0.848668
2004-02-24 08:30:28 51°20.943 2°38.205 12.500523 4.092741 31.524773 -0.882377
2004-02-24 08:30:32 51°20.944 2°38.18 12.500523 4.092741 31.524773 -0.882377
2004-02-24 08:30:38 51°20.946 2°38.141 12.507657 4.092952 31.526584 -0.882377
2004-02-24 08:30:42 51°20.947 2°38.116 12.500974 4.092424 31.522631 -0.882377
2004-02-24 08:30:48 51°20.949 2°38.077 12.504767 4.092741 31.526498 -0.882377
2004-02-24 08:30:53 51°20.95 2°38.045 12.504226 4.092741 31.526498 -0.882377
2004-02-24 08:30:58 51°20.951 2°38.013 12.509237 4.092425 31.524932 -0.848668
2004-02-24 08:31:03 51°20.953 2°37.98 12.509237 4.092425 31.524932 -0.848668
2004-02-24 08:31:08 51°20.954 2°37.948 12.50567 4.092214 31.52312 -0.848668
2004-02-24 08:31:13 51°20.955 2°37.916 12.507522 4.092003 31.521884 -0.882377
2004-02-24 08:31:18 51°20.957 2°37.884 12.511404 4.092425 31.526082 -0.848668
2004-02-24 08:31:23 51°20.958 2°37.851 12.511404 4.092108 31.524516 -0.882377
2004-02-24 08:31:28 51°20.96 2°37.819 12.515874 4.092425 31.527233 -0.882377
2004-02-24 08:31:33 51°20.962 2°37.787 12.515874 4.092425 31.527233 -0.882377
2004-02-24 08:31:38 51°20.962 2°37.755 12.514248 4.092214 31.525421 -0.882377
2004-02-24 08:31:42 51°20.964 2°37.729 12.515648 4.092214 31.526572 -0.882377
2004-02-24 08:31:48 51°20.965 2°37.69 12.516506 4.092108 31.525091 -0.882377
2004-02-24 08:31:53 51°20.967 2°37.658 12.515829 4.092003 31.525911 -0.848668
2004-02-24 08:31:58 51°20.968 2°37.626 12.515106 4.091792 31.524675 -0.882377
2004-02-24 08:32:03 51°20.97 2°37.593 12.515106 4.091792 31.524675 -0.882377
2004-02-24 08:32:08 51°20.971 2°37.561 12.517589 4.092003 31.527062 -0.882377
2004-02-24 08:32:12 51°20.972 2°37.536 12.520433 4.091687 31.524344 -0.882377
2004-02-24 08:32:18 51°20.974 2°37.497 12.519395 4.091581 31.525165 -0.882377
2004-02-24 08:32:23 51°20.976 2°37.465 12.517183 4.091476 31.524259 -0.848668
2004-02-24 08:32:28 51°20.977 2°37.432 12.523277 4.09137 31.523928 -0.814958
2004-02-24 08:32:32 51°20.978 2°37.406 12.523277 4.09137 31.523928 -0.814958
2004-02-24 08:32:38 51°20.98 2°37.368 12.513436 4.091054 31.521786 -0.882377
2004-02-24 08:32:43 51°20.981 2°37.335 12.515467 4.091265 31.524749 -0.882377
2004-02-24 08:32:48 51°20.983 2°37.303 12.522735 4.091265 31.525324 -0.882377
2004-02-24 08:32:53 51°20.984 2°37.271 12.519304 4.091159 31.524994 -0.848668
2004-02-24 08:32:58 51°20.986 2°37.239 12.52278 4.091265 31.5259 -0.882377
2004-02-24 08:33:03 51°20.987 2°37.206 12.52278 4.091265 31.5259 -0.882377
2004-02-24 08:33:08 51°20.989 2°37.174 12.521968 4.090949 31.523757 -0.882377
2004-02-24 08:33:13 51°20.99 2°37.142 12.526707 4.090949 31.524908 -0.882377
2004-02-24 08:33:18 51°20.992 2°37.11 12.525985 4.090738 31.522521 -0.848668
2004-02-24 08:33:23 51°20.993 2°37.077 12.525759 4.090632 31.522766 -0.848668
2004-02-24 08:33:28 51°20.994 2°37.045 12.528107 4.090632 31.522766 -0.848668
2004-02-24 08:33:33 51°20.997 2°37.013 12.528107 4.090632 31.522766 -0.848668
2004-02-24 08:33:38 51°20.998 2°36.98 12.526798 4.090527 31.523011 -0.882377
2004-02-24 08:33:42 51°20.999 2°36.954 12.530679 4.090632 31.523917 -0.882377
2004-02-24 08:33:48 51°21.001 2°36.916 12.532123 4.090421 31.523256 -0.848668
2004-02-24 08:33:53 51°21.003 2°36.884 12.52603 4.090422 31.523831 -0.848668
2004-02-24 08:33:58 51°21.005 2°36.851 12.527294 4.09 31.520207 -0.848668
2004-02-24 08:34:02 51°21.006 2°36.826 12.527294 4.09 31.520207 -0.848668
2004-02-24 08:34:08 51°21.008 2°36.787 12.529686 4.090211 31.524322 -0.882377
2004-02-24 08:34:13 51°21.01 2°36.755 12.531085 4.09 31.521934 -0.848668
2004-02-24 08:34:18 51°21.012 2°36.722 12.526662 4.089789 31.520697 -0.882377
2004-02-24 08:34:24 51°21.012 2°36.684 12.531717 4.090105 31.523991 -0.882377
2004-02-24 08:34:28 51°21.013 2°36.658 12.533523 4.089789 31.521848 -0.848668
2004-02-24 08:34:34 51°21.015 2°36.619 12.533523 4.089789 31.521848 -0.848668
2004-02-24 08:34:38 51°21.016 2°36.593 12.530769 4.089578 31.520612 -0.848668
2004-02-24 08:34:43 51°21.018 2°36.56 12.536862 4.089894 31.52333 -0.882377
2004-02-24 08:34:48 51°21.019 2°36.528 12.531853 4.089367 31.51995 -0.916087
2004-02-24 08:34:53 51°21.021 2°36.495 12.535192 4.089578 31.521187 -0.882377
2004-02-24 08:34:58 51°21.022 2°36.463 12.538758 4.089578 31.522338 -0.882377
2004-02-24 08:35:02 51°21.023 2°36.437 12.538758 4.089578 31.522338 -0.882377
2004-02-24 08:35:08 51°21.025 2°36.398 12.540924 4.089789 31.524727 -0.848668
2004-02-24 08:35:13 51°21.027 2°36.365 12.540202 4.089578 31.52349 -0.848668
2004-02-24 08:35:18 51°21.028 2°36.332 12.533748 4.089262 31.521347 -0.882377
2004-02-24 08:35:23 51°21.029 2°36.3 12.541014 4.089156 31.521016 -0.848668
2004-02-24 08:35:28 51°21.031 2°36.267 12.540924 4.089156 31.522743 -0.848668
2004-02-24 08:35:32 51°21.032 2°36.241 12.540924 4.089156 31.522743 -0.848668
2004-02-24 08:35:38 51°21.034 2°36.202 12.545933 4.089473 31.524887 -0.848668
2004-02-24 08:35:43 51°21.036 2°36.17 12.539344 4.089051 31.521837 -0.848668
2004-02-24 08:35:48 51°21.037 2°36.137 12.545075 4.089051 31.522413 -0.882377
2004-02-24 08:35:53 51°21.039 2°36.105 12.546068 4.088946 31.522082 -0.882377
2004-02-24 08:35:58 51°21.04 2°36.072 12.544489 4.088946 31.522658 -0.882377
2004-02-24 08:36:04 51°21.042 2°36.033 12.544489 4.088946 31.522658 -0.882377
2004-02-24 08:36:08 51°21.043 2°36.007 12.546429 4.088735 31.521421 -0.882377
2004-02-24 08:36:13 51°21.045 2°35.974 12.544714 4.088629 31.521091 -0.882377
2004-02-24 08:36:18 51°21.046 2°35.942 12.545572 4.088629 31.521091 -0.882377
2004-02-24 08:36:22 51°21.047 2°35.916 12.548324 4.088524 31.521336 -0.882377
2004-02-24 08:36:28 51°21.049 2°35.877 12.54688 4.088313 31.520099 -0.848668
2004-02-24 08:36:32 51°21.05 2°35.851 12.54688 4.088313 31.520099 -0.848668
2004-02-24 08:36:38 51°21.052 2°35.812 12.54688 4.088208 31.519192 -0.882377
2004-02-24 08:36:42 51°21.054 2°35.786 12.551031 4.088208 31.520344 -0.882377
2004-02-24 08:36:48 51°21.055 2°35.747 12.545211 4.088313 31.522978 -0.916087
2004-02-24 08:36:52 51°21.056 2°35.721 12.553152 4.088524 31.524215 -0.848668
2004-02-24 08:36:58 51°21.058 2°35.682 12.553197 4.088313 31.522978 -0.882377
2004-02-24 08:37:03 51°21.059 2°35.649 12.553197 4.088313 31.522978 -0.882377